P4MALC GMAT-GOBD
Flight info
| Callsign | P4MALC |
|---|---|
| Flight time | N/A |
| Altitude | 20000 |
| Route | TNN DCT GLM DCT DIDAN/N0165F180 R975 ECHED/N0168F200 T975 CARIM R975 SAKLI |
| Aircraft | BT36/L-BDFGLORY/S |
Departure
| Time | N/A |
|---|---|
| Airport | Tan Tan Airport (GMAT) |
Arrival
| Time | 2026-05-05 22:13 |
|---|---|
| Airport | Blaise Diagne International Airport (GOBD) |
| Time | Latitude | Longitude | Altitude | Speed | Heading |
|---|---|---|---|---|---|
| 2026-05-05 17:56 | 23.40512 | -12.22529 | 9829 ft | 152 kts | 204° |
| 2026-05-05 17:57 | 23.39509 | -12.22899 | 9828 ft | 152 kts | 205° |
| 2026-05-05 17:57 | 23.38503 | -12.23268 | 9831 ft | 152 kts | 205° |
| 2026-05-05 17:57 | 23.37501 | -12.23637 | 9831 ft | 152 kts | 205° |
| 2026-05-05 17:57 | 23.36510 | -12.24001 | 9831 ft | 152 kts | 205° |
| 2026-05-05 17:58 | 23.35505 | -12.24369 | 9830 ft | 152 kts | 204° |
| 2026-05-05 17:58 | 23.34505 | -12.24736 | 9830 ft | 152 kts | 205° |
| 2026-05-05 17:58 | 23.33504 | -12.25103 | 9831 ft | 152 kts | 205° |
| 2026-05-05 17:58 | 23.32503 | -12.25471 | 9831 ft | 152 kts | 204° |
| 2026-05-05 17:59 | 23.31498 | -12.25840 | 9832 ft | 153 kts | 204° |
| 2026-05-05 17:59 | 23.30488 | -12.26210 | 9831 ft | 152 kts | 204° |
| 2026-05-05 17:59 | 23.29485 | -12.26577 | 9831 ft | 152 kts | 204° |
| 2026-05-05 17:59 | 23.28483 | -12.26944 | 9832 ft | 152 kts | 204° |
| 2026-05-05 18:00 | 23.27489 | -12.27309 | 9831 ft | 152 kts | 205° |
| 2026-05-05 18:00 | 23.26488 | -12.27676 | 9831 ft | 152 kts | 205° |
| 2026-05-05 18:00 | 23.25508 | -12.28034 | 9835 ft | 146 kts | 204° |
| 2026-05-05 18:00 | 23.24559 | -12.28381 | 9835 ft | 142 kts | 204° |
| 2026-05-05 18:01 | 23.23632 | -12.28721 | 9833 ft | 140 kts | 204° |
| 2026-05-05 18:01 | 23.22718 | -12.29056 | 9831 ft | 138 kts | 204° |
| 2026-05-05 18:01 | 23.21811 | -12.29388 | 9828 ft | 137 kts | 204° |
| 2026-05-05 18:01 | 23.20907 | -12.29721 | 9827 ft | 137 kts | 204° |
| 2026-05-05 18:02 | 23.20005 | -12.30058 | 9828 ft | 138 kts | 204° |
| 2026-05-05 18:02 | 23.19094 | -12.30381 | 9826 ft | 138 kts | 204° |
| 2026-05-05 18:02 | 23.18187 | -12.30712 | 9827 ft | 138 kts | 204° |
| 2026-05-05 18:02 | 23.17276 | -12.31047 | 9825 ft | 138 kts | 205° |
| 2026-05-05 18:03 | 23.16379 | -12.31377 | 9826 ft | 138 kts | 204° |
| 2026-05-05 18:03 | 23.15470 | -12.31709 | 9826 ft | 137 kts | 204° |
| 2026-05-05 18:03 | 23.14568 | -12.32039 | 9825 ft | 137 kts | 204° |
| 2026-05-05 18:03 | 23.13662 | -12.32370 | 9825 ft | 137 kts | 204° |
| 2026-05-05 18:04 | 23.12762 | -12.32699 | 9825 ft | 136 kts | 204° |
| 2026-05-05 18:04 | 23.11862 | -12.33029 | 9824 ft | 137 kts | 205° |
| 2026-05-05 18:04 | 23.10960 | -12.33359 | 9824 ft | 137 kts | 205° |
| 2026-05-05 18:04 | 23.10054 | -12.33689 | 9819 ft | 137 kts | 205° |
| 2026-05-05 18:05 | 23.09149 | -12.34021 | 9822 ft | 138 kts | 204° |
| 2026-05-05 18:05 | 23.08241 | -12.34353 | 9822 ft | 138 kts | 204° |
| 2026-05-05 18:05 | 23.07334 | -12.34683 | 9822 ft | 137 kts | 204° |
| 2026-05-05 18:05 | 23.06429 | -12.35014 | 9822 ft | 137 kts | 204° |
| 2026-05-05 18:06 | 23.05538 | -12.35340 | 9822 ft | 137 kts | 204° |
| 2026-05-05 18:06 | 23.04938 | -12.35558 | 9822 ft | 137 kts | 205° |
| 2026-05-05 18:06 | 23.03729 | -12.36001 | 9822 ft | 137 kts | 204° |
| 2026-05-05 18:06 | 23.02826 | -12.36330 | 9821 ft | 137 kts | 204° |
| 2026-05-05 18:07 | 23.01928 | -12.36658 | 9820 ft | 136 kts | 204° |
| 2026-05-05 18:07 | 23.01028 | -12.36986 | 9820 ft | 136 kts | 204° |
| 2026-05-05 18:07 | 23.00133 | -12.37313 | 9822 ft | 136 kts | 204° |
| 2026-05-05 18:07 | 22.99235 | -12.37640 | 9824 ft | 136 kts | 204° |
| 2026-05-05 18:08 | 22.98350 | -12.37964 | 9826 ft | 137 kts | 204° |
| 2026-05-05 18:08 | 22.97443 | -12.38295 | 9826 ft | 137 kts | 204° |
| 2026-05-05 18:08 | 22.96535 | -12.38626 | 9827 ft | 138 kts | 204° |
| 2026-05-05 18:08 | 22.95627 | -12.38957 | 9827 ft | 138 kts | 204° |
| 2026-05-05 18:09 | 22.94718 | -12.39288 | 9826 ft | 137 kts | 204° |
| 2026-05-05 18:09 | 22.93815 | -12.39618 | 9816 ft | 137 kts | 202° |
| 2026-05-05 18:09 | 22.92894 | -12.39953 | 9824 ft | 142 kts | 202° |
| 2026-05-05 18:09 | 22.91948 | -12.40298 | 9824 ft | 145 kts | 201° |
| 2026-05-05 18:10 | 22.90986 | -12.40650 | 9830 ft | 147 kts | 201° |
| 2026-05-05 18:10 | 22.90015 | -12.41003 | 9838 ft | 147 kts | 203° |
| 2026-05-05 18:10 | 22.89045 | -12.41356 | 9840 ft | 147 kts | 203° |
| 2026-05-05 18:10 | 22.88092 | -12.41703 | 9841 ft | 146 kts | 203° |
| 2026-05-05 18:11 | 22.87127 | -12.42055 | 9843 ft | 147 kts | 203° |
| 2026-05-05 18:11 | 22.86159 | -12.42407 | 9842 ft | 147 kts | 203° |
| 2026-05-05 18:11 | 22.85192 | -12.42759 | 9840 ft | 146 kts | 203° |
| 2026-05-05 18:11 | 22.84226 | -12.43111 | 9841 ft | 146 kts | 203° |
| 2026-05-05 18:12 | 22.83266 | -12.43460 | 9840 ft | 146 kts | 203° |
| 2026-05-05 18:12 | 22.82302 | -12.43811 | 9840 ft | 146 kts | 204° |
| 2026-05-05 18:12 | 22.81335 | -12.44163 | 9839 ft | 146 kts | 204° |
| 2026-05-05 18:12 | 22.80370 | -12.44514 | 9842 ft | 146 kts | 204° |
| 2026-05-05 18:13 | 22.79406 | -12.44865 | 9842 ft | 146 kts | 203° |
| 2026-05-05 18:13 | 22.78445 | -12.45214 | 9842 ft | 146 kts | 203° |
| 2026-05-05 18:13 | 22.77486 | -12.45565 | 9841 ft | 145 kts | 204° |
| 2026-05-05 18:13 | 22.76521 | -12.45916 | 9841 ft | 146 kts | 203° |
| 2026-05-05 18:14 | 22.75554 | -12.46244 | 9840 ft | 147 kts | 198° |
| 2026-05-05 18:14 | 22.74574 | -12.46492 | 9840 ft | 146 kts | 199° |
| 2026-05-05 18:14 | 22.73587 | -12.46767 | 9842 ft | 146 kts | 199° |
| 2026-05-05 18:14 | 22.72600 | -12.47040 | 9841 ft | 147 kts | 199° |
| 2026-05-05 18:15 | 22.71609 | -12.47312 | 9844 ft | 147 kts | 199° |
| 2026-05-05 18:15 | 22.70614 | -12.47584 | 9842 ft | 147 kts | 199° |
| 2026-05-05 18:15 | 22.69627 | -12.47852 | 9840 ft | 145 kts | 199° |
| 2026-05-05 18:15 | 22.68977 | -12.48028 | 9838 ft | 145 kts | 199° |
| 2026-05-05 18:16 | 22.67660 | -12.48390 | 9845 ft | 147 kts | 199° |
| 2026-05-05 18:16 | 22.67002 | -12.48565 | 9844 ft | 147 kts | 199° |
| 2026-05-05 18:16 | 22.66010 | -12.48837 | 9842 ft | 146 kts | 198° |
| 2026-05-05 18:16 | 22.64695 | -12.49192 | 9847 ft | 146 kts | 199° |
| 2026-05-05 18:17 | 22.64034 | -12.49370 | 9846 ft | 147 kts | 199° |
| 2026-05-05 18:17 | 22.63038 | -12.49643 | 9846 ft | 148 kts | 199° |
| 2026-05-05 18:17 | 22.62039 | -12.49917 | 9844 ft | 147 kts | 199° |
| 2026-05-05 18:17 | 22.61045 | -12.50191 | 9832 ft | 148 kts | 196° |
| 2026-05-05 18:18 | 22.59717 | -12.50544 | 9835 ft | 148 kts | 196° |
| 2026-05-05 18:18 | 22.59040 | -12.50728 | 9833 ft | 149 kts | 196° |
| 2026-05-05 18:18 | 22.58051 | -12.51001 | 9835 ft | 148 kts | 197° |
| 2026-05-05 18:18 | 22.57047 | -12.51273 | 9833 ft | 149 kts | 197° |
| 2026-05-05 18:19 | 22.56040 | -12.51550 | 9834 ft | 150 kts | 196° |
| 2026-05-05 18:19 | 22.55026 | -12.51817 | 9834 ft | 150 kts | 197° |
| 2026-05-05 18:19 | 22.54015 | -12.52093 | 9832 ft | 150 kts | 197° |
| 2026-05-05 18:19 | 22.53005 | -12.52369 | 9833 ft | 150 kts | 196° |
| 2026-05-05 18:20 | 22.51997 | -12.52644 | 9834 ft | 150 kts | 196° |
| 2026-05-05 18:20 | 22.50977 | -12.52916 | 9834 ft | 150 kts | 196° |
| 2026-05-05 18:20 | 22.49962 | -12.53193 | 9833 ft | 150 kts | 196° |
| 2026-05-05 18:20 | 22.48948 | -12.53469 | 9832 ft | 150 kts | 196° |
| 2026-05-05 18:21 | 22.47933 | -12.53744 | 9831 ft | 150 kts | 196° |
| 2026-05-05 18:21 | 22.46914 | -12.54021 | 9832 ft | 151 kts | 196° |
| 2026-05-05 18:21 | 22.45911 | -12.54294 | 9831 ft | 150 kts | 196° |
| 2026-05-05 18:21 | 22.44895 | -12.54569 | 9833 ft | 150 kts | 196° |
| 2026-05-05 18:22 | 22.43880 | -12.54835 | 9833 ft | 151 kts | 195° |
| 2026-05-05 18:22 | 22.42863 | -12.55110 | 9830 ft | 151 kts | 196° |
| 2026-05-05 18:22 | 22.41850 | -12.55399 | 9833 ft | 150 kts | 197° |
| 2026-05-05 18:22 | 22.40840 | -12.55674 | 9830 ft | 149 kts | 196° |
| 2026-05-05 18:23 | 22.39829 | -12.55944 | 9831 ft | 150 kts | 196° |
| 2026-05-05 18:23 | 22.38818 | -12.56217 | 9830 ft | 149 kts | 196° |
| 2026-05-05 18:23 | 22.37808 | -12.56489 | 9830 ft | 149 kts | 196° |
| 2026-05-05 18:23 | 22.36801 | -12.56761 | 9831 ft | 149 kts | 196° |
| 2026-05-05 18:24 | 22.35794 | -12.57034 | 9828 ft | 149 kts | 196° |
| 2026-05-05 18:24 | 22.34797 | -12.57304 | 9827 ft | 149 kts | 196° |
| 2026-05-05 18:24 | 22.33790 | -12.57577 | 9829 ft | 149 kts | 196° |
| 2026-05-05 18:24 | 22.32781 | -12.57849 | 9826 ft | 149 kts | 196° |
| 2026-05-05 18:25 | 22.31776 | -12.58121 | 9822 ft | 148 kts | 196° |
| 2026-05-05 18:25 | 22.31101 | -12.58304 | 9823 ft | 148 kts | 196° |
| 2026-05-05 18:25 | 22.29772 | -12.58664 | 9823 ft | 149 kts | 196° |
| 2026-05-05 18:25 | 22.28766 | -12.58937 | 9812 ft | 149 kts | 195° |
| 2026-05-05 18:26 | 22.27749 | -12.59210 | 9820 ft | 152 kts | 195° |
| 2026-05-05 18:26 | 22.26716 | -12.59491 | 9821 ft | 154 kts | 195° |
| 2026-05-05 18:26 | 22.25669 | -12.59777 | 9820 ft | 155 kts | 194° |
| 2026-05-05 18:26 | 22.24616 | -12.60055 | 9821 ft | 156 kts | 195° |
| 2026-05-05 18:27 | 22.23574 | -12.60337 | 9824 ft | 156 kts | 195° |
| 2026-05-05 18:27 | 22.22520 | -12.60623 | 9824 ft | 156 kts | 195° |
| 2026-05-05 18:27 | 22.21462 | -12.60909 | 9823 ft | 157 kts | 195° |
| 2026-05-05 18:27 | 22.20403 | -12.61196 | 9822 ft | 157 kts | 195° |
| 2026-05-05 18:28 | 22.18286 | -12.61767 | 9820 ft | 157 kts | 195° |
| 2026-05-05 18:28 | 22.17226 | -12.62054 | 9821 ft | 157 kts | 195° |
| 2026-05-05 18:28 | 22.16170 | -12.62339 | 9819 ft | 157 kts | 195° |
| 2026-05-05 18:29 | 22.15110 | -12.62627 | 9824 ft | 157 kts | 195° |
| 2026-05-05 18:29 | 22.14065 | -12.62914 | 9825 ft | 157 kts | 195° |
| 2026-05-05 18:29 | 22.13005 | -12.63195 | 9823 ft | 157 kts | 194° |
| 2026-05-05 18:29 | 22.11942 | -12.63474 | 9824 ft | 157 kts | 195° |
| 2026-05-05 18:30 | 22.10883 | -12.63762 | 9822 ft | 157 kts | 195° |
| 2026-05-05 18:30 | 22.09825 | -12.64049 | 9819 ft | 157 kts | 195° |
| 2026-05-05 18:30 | 22.08761 | -12.64337 | 9822 ft | 157 kts | 195° |
| 2026-05-05 18:30 | 22.07700 | -12.64624 | 9823 ft | 157 kts | 195° |
| 2026-05-05 18:31 | 22.06637 | -12.64911 | 9821 ft | 157 kts | 195° |
| 2026-05-05 18:31 | 22.05573 | -12.65197 | 9822 ft | 157 kts | 195° |
| 2026-05-05 18:31 | 22.04524 | -12.65479 | 9824 ft | 158 kts | 195° |
| 2026-05-05 18:31 | 22.03463 | -12.65766 | 9823 ft | 156 kts | 195° |
| 2026-05-05 18:32 | 22.02410 | -12.66050 | 9821 ft | 156 kts | 195° |
| 2026-05-05 18:32 | 22.01359 | -12.66333 | 9819 ft | 155 kts | 195° |
| 2026-05-05 18:32 | 22.00311 | -12.66615 | 9820 ft | 155 kts | 195° |
| 2026-05-05 18:32 | 21.99264 | -12.66896 | 9819 ft | 155 kts | 195° |
| 2026-05-05 18:33 | 21.98220 | -12.67178 | 9815 ft | 155 kts | 195° |
| 2026-05-05 18:33 | 21.97172 | -12.67460 | 9813 ft | 155 kts | 195° |
| 2026-05-05 18:33 | 21.96125 | -12.67742 | 9808 ft | 155 kts | 195° |
| 2026-05-05 18:33 | 21.95093 | -12.68019 | 9812 ft | 154 kts | 195° |
| 2026-05-05 18:34 | 21.94048 | -12.68300 | 9815 ft | 155 kts | 195° |
| 2026-05-05 18:34 | 21.93004 | -12.68581 | 9817 ft | 155 kts | 195° |
| 2026-05-05 18:34 | 21.91957 | -12.68863 | 9817 ft | 155 kts | 195° |
| 2026-05-05 18:34 | 21.90908 | -12.69145 | 9817 ft | 155 kts | 195° |
| 2026-05-05 18:35 | 21.89858 | -12.69428 | 9816 ft | 155 kts | 195° |
| 2026-05-05 18:35 | 21.88809 | -12.69711 | 9819 ft | 155 kts | 195° |
| 2026-05-05 18:35 | 21.87766 | -12.69994 | 9818 ft | 155 kts | 195° |
| 2026-05-05 18:35 | 21.86714 | -12.70273 | 9818 ft | 155 kts | 195° |
| 2026-05-05 18:36 | 21.85680 | -12.70549 | 9815 ft | 155 kts | 195° |
| 2026-05-05 18:36 | 21.84632 | -12.70831 | 9816 ft | 155 kts | 195° |
| 2026-05-05 18:36 | 21.83587 | -12.71113 | 9814 ft | 155 kts | 195° |
| 2026-05-05 18:36 | 21.82542 | -12.71397 | 9814 ft | 155 kts | 195° |
| 2026-05-05 18:37 | 21.81497 | -12.71676 | 9816 ft | 155 kts | 195° |
| 2026-05-05 18:37 | 21.80450 | -12.71953 | 9814 ft | 155 kts | 195° |
| 2026-05-05 18:37 | 21.79400 | -12.72236 | 9815 ft | 155 kts | 195° |
| 2026-05-05 18:37 | 21.78350 | -12.72519 | 9814 ft | 155 kts | 195° |
| 2026-05-05 18:38 | 21.77300 | -12.72801 | 9817 ft | 155 kts | 195° |
| 2026-05-05 18:38 | 21.76252 | -12.73083 | 9816 ft | 155 kts | 195° |
| 2026-05-05 18:38 | 21.75206 | -12.73364 | 9819 ft | 155 kts | 195° |
| 2026-05-05 18:38 | 21.74158 | -12.73647 | 9818 ft | 155 kts | 195° |
| 2026-05-05 18:39 | 21.73108 | -12.73928 | 9818 ft | 155 kts | 195° |
| 2026-05-05 18:39 | 21.72059 | -12.74211 | 9816 ft | 155 kts | 195° |
| 2026-05-05 18:39 | 21.71013 | -12.74491 | 9816 ft | 155 kts | 195° |
| 2026-05-05 18:39 | 21.69969 | -12.74766 | 9816 ft | 155 kts | 195° |
| 2026-05-05 18:40 | 21.68924 | -12.75044 | 9813 ft | 155 kts | 195° |
| 2026-05-05 18:40 | 21.67882 | -12.75325 | 9814 ft | 155 kts | 195° |
| 2026-05-05 18:40 | 21.66851 | -12.75603 | 9816 ft | 154 kts | 195° |
| 2026-05-05 18:40 | 21.65807 | -12.75884 | 9817 ft | 154 kts | 195° |
| 2026-05-05 18:41 | 21.64766 | -12.76164 | 9816 ft | 154 kts | 195° |
| 2026-05-05 18:41 | 21.63722 | -12.76442 | 9817 ft | 155 kts | 195° |
| 2026-05-05 18:41 | 21.62675 | -12.76722 | 9818 ft | 154 kts | 196° |
| 2026-05-05 18:41 | 21.61634 | -12.77001 | 9819 ft | 154 kts | 196° |
| 2026-05-05 18:42 | 21.60594 | -12.77281 | 9819 ft | 154 kts | 195° |
| 2026-05-05 18:42 | 21.59553 | -12.77558 | 9819 ft | 154 kts | 195° |
| 2026-05-05 18:42 | 21.58516 | -12.77835 | 9820 ft | 153 kts | 196° |
| 2026-05-05 18:42 | 21.57482 | -12.78113 | 9819 ft | 153 kts | 195° |
| 2026-05-05 18:43 | 21.56445 | -12.78393 | 9820 ft | 154 kts | 196° |
| 2026-05-05 18:43 | 21.55407 | -12.78676 | 9821 ft | 153 kts | 196° |
| 2026-05-05 18:43 | 21.54372 | -12.78954 | 9821 ft | 153 kts | 195° |
| 2026-05-05 18:43 | 21.53334 | -12.79215 | 9820 ft | 153 kts | 195° |
| 2026-05-05 18:44 | 21.52300 | -12.79492 | 9820 ft | 153 kts | 196° |
| 2026-05-05 18:44 | 21.51279 | -12.79770 | 9820 ft | 153 kts | 196° |
| 2026-05-05 18:44 | 21.50244 | -12.80048 | 9822 ft | 153 kts | 196° |
| 2026-05-05 18:44 | 21.49211 | -12.80326 | 9823 ft | 153 kts | 196° |
| 2026-05-05 18:45 | 21.48180 | -12.80601 | 9823 ft | 153 kts | 196° |
| 2026-05-05 18:45 | 21.47148 | -12.80877 | 9822 ft | 153 kts | 195° |
| 2026-05-05 18:45 | 21.46114 | -12.81153 | 9821 ft | 153 kts | 196° |
| 2026-05-05 18:45 | 21.45079 | -12.81430 | 9821 ft | 153 kts | 196° |
| 2026-05-05 18:46 | 21.44042 | -12.81707 | 9821 ft | 153 kts | 196° |
| 2026-05-05 18:46 | 21.43011 | -12.81983 | 9824 ft | 153 kts | 196° |
| 2026-05-05 18:46 | 21.41977 | -12.82259 | 9824 ft | 153 kts | 195° |
| 2026-05-05 18:46 | 21.40944 | -12.82535 | 9824 ft | 153 kts | 195° |
| 2026-05-05 18:47 | 21.39907 | -12.82811 | 9823 ft | 154 kts | 195° |
| 2026-05-05 18:47 | 21.38867 | -12.83089 | 9823 ft | 154 kts | 195° |
| 2026-05-05 18:47 | 21.37831 | -12.83365 | 9824 ft | 153 kts | 195° |
| 2026-05-05 18:47 | 21.36796 | -12.83642 | 9825 ft | 153 kts | 196° |
| 2026-05-05 18:48 | 21.35763 | -12.83917 | 9827 ft | 152 kts | 196° |
| 2026-05-05 18:48 | 21.34745 | -12.84189 | 9827 ft | 153 kts | 195° |
| 2026-05-05 18:48 | 21.33715 | -12.84463 | 9828 ft | 153 kts | 195° |
| 2026-05-05 18:48 | 21.32687 | -12.84738 | 9827 ft | 152 kts | 196° |
| 2026-05-05 18:49 | 21.31662 | -12.85011 | 9826 ft | 152 kts | 196° |
| 2026-05-05 18:49 | 21.30631 | -12.85286 | 9826 ft | 152 kts | 196° |
| 2026-05-05 18:49 | 21.29602 | -12.85561 | 9829 ft | 152 kts | 195° |
| 2026-05-05 18:49 | 21.28575 | -12.85834 | 9826 ft | 152 kts | 196° |
| 2026-05-05 18:50 | 21.27546 | -12.86109 | 9822 ft | 153 kts | 195° |
| 2026-05-05 18:50 | 21.26514 | -12.86383 | 9824 ft | 153 kts | 195° |
| 2026-05-05 18:50 | 21.25484 | -12.86658 | 9823 ft | 152 kts | 196° |
| 2026-05-05 18:50 | 21.24454 | -12.86932 | 9822 ft | 152 kts | 195° |
| 2026-05-05 18:51 | 21.23422 | -12.87207 | 9823 ft | 152 kts | 195° |
| 2026-05-05 18:51 | 21.22391 | -12.87482 | 9823 ft | 153 kts | 195° |
| 2026-05-05 18:51 | 21.21372 | -12.87754 | 9823 ft | 153 kts | 196° |
| 2026-05-05 18:51 | 21.20339 | -12.88028 | 9824 ft | 153 kts | 195° |
| 2026-05-05 18:52 | 21.19305 | -12.88304 | 9821 ft | 154 kts | 195° |
| 2026-05-05 18:52 | 21.18270 | -12.88579 | 9821 ft | 153 kts | 195° |
| 2026-05-05 18:52 | 21.17230 | -12.88856 | 9821 ft | 153 kts | 195° |
| 2026-05-05 18:52 | 21.16195 | -12.89131 | 9823 ft | 153 kts | 195° |
| 2026-05-05 18:53 | 21.15172 | -12.89403 | 9823 ft | 153 kts | 195° |
| 2026-05-05 18:53 | 21.14137 | -12.89678 | 9824 ft | 153 kts | 195° |
| 2026-05-05 18:53 | 21.13107 | -12.89953 | 9825 ft | 153 kts | 195° |
| 2026-05-05 18:53 | 21.12071 | -12.90229 | 9825 ft | 153 kts | 195° |
| 2026-05-05 18:54 | 21.11038 | -12.90503 | 9824 ft | 153 kts | 195° |
| 2026-05-05 18:54 | 21.10005 | -12.90778 | 9824 ft | 153 kts | 195° |
| 2026-05-05 18:54 | 21.08975 | -12.91052 | 9822 ft | 153 kts | 195° |
| 2026-05-05 18:54 | 21.07947 | -12.91324 | 9825 ft | 152 kts | 195° |
| 2026-05-05 18:55 | 21.06916 | -12.91598 | 9822 ft | 152 kts | 195° |
| 2026-05-05 18:55 | 21.05886 | -12.91872 | 9822 ft | 152 kts | 195° |
| 2026-05-05 18:55 | 21.04856 | -12.92146 | 9822 ft | 152 kts | 195° |
| 2026-05-05 18:55 | 21.03839 | -12.92417 | 9822 ft | 152 kts | 195° |
| 2026-05-05 18:56 | 21.02808 | -12.92690 | 9818 ft | 153 kts | 196° |
| 2026-05-05 18:56 | 21.01776 | -12.92964 | 9819 ft | 152 kts | 195° |
| 2026-05-05 18:56 | 21.00745 | -12.93238 | 9819 ft | 153 kts | 195° |
| 2026-05-05 18:56 | 20.99714 | -12.93512 | 9819 ft | 152 kts | 196° |
| 2026-05-05 18:57 | 20.98686 | -12.93785 | 9822 ft | 152 kts | 195° |
| 2026-05-05 18:57 | 20.97660 | -12.94057 | 9822 ft | 152 kts | 195° |
| 2026-05-05 18:57 | 20.96632 | -12.94330 | 9822 ft | 152 kts | 195° |
| 2026-05-05 18:57 | 20.95617 | -12.94599 | 9824 ft | 152 kts | 196° |
| 2026-05-05 18:58 | 20.94588 | -12.94872 | 9823 ft | 153 kts | 195° |
| 2026-05-05 18:58 | 20.93554 | -12.95146 | 9823 ft | 152 kts | 196° |
| 2026-05-05 18:58 | 20.92526 | -12.95420 | 9824 ft | 153 kts | 196° |
| 2026-05-05 18:58 | 20.91494 | -12.95693 | 9824 ft | 153 kts | 195° |
| 2026-05-05 18:59 | 20.90459 | -12.95967 | 9824 ft | 153 kts | 195° |
| 2026-05-05 18:59 | 20.89423 | -12.96242 | 9823 ft | 153 kts | 195° |
| 2026-05-05 18:59 | 20.88402 | -12.96513 | 9824 ft | 153 kts | 195° |
| 2026-05-05 18:59 | 20.87370 | -12.96787 | 9823 ft | 153 kts | 196° |
| 2026-05-05 19:00 | 20.86339 | -12.97060 | 9823 ft | 153 kts | 196° |
| 2026-05-05 19:00 | 20.85308 | -12.97332 | 9822 ft | 153 kts | 195° |
| 2026-05-05 19:00 | 20.84275 | -12.97606 | 9825 ft | 153 kts | 195° |
| 2026-05-05 19:00 | 20.83244 | -12.97880 | 9832 ft | 153 kts | 195° |
| 2026-05-05 19:01 | 20.82212 | -12.98153 | 9835 ft | 153 kts | 195° |
| 2026-05-05 19:01 | 20.81181 | -12.98426 | 9838 ft | 152 kts | 195° |
| 2026-05-05 19:01 | 20.80151 | -12.98699 | 9843 ft | 152 kts | 195° |
| 2026-05-05 19:01 | 20.79118 | -12.98972 | 9846 ft | 153 kts | 195° |
| 2026-05-05 19:02 | 20.78081 | -12.99246 | 9851 ft | 153 kts | 195° |
| 2026-05-05 19:02 | 20.77054 | -12.99519 | 9856 ft | 154 kts | 196° |
| 2026-05-05 19:02 | 20.76014 | -12.99794 | 9860 ft | 154 kts | 196° |
| 2026-05-05 19:02 | 20.74973 | -13.00069 | 9863 ft | 154 kts | 195° |
| 2026-05-05 19:03 | 20.73930 | -13.00345 | 9868 ft | 154 kts | 196° |
| 2026-05-05 19:03 | 20.72886 | -13.00622 | 9871 ft | 154 kts | 195° |
| 2026-05-05 19:03 | 20.71846 | -13.00897 | 9874 ft | 154 kts | 195° |
| 2026-05-05 19:03 | 20.70806 | -13.01171 | 9878 ft | 154 kts | 195° |
| 2026-05-05 19:04 | 20.70117 | -13.01354 | 9880 ft | 154 kts | 195° |
| 2026-05-05 19:04 | 20.68740 | -13.01717 | 9884 ft | 153 kts | 195° |
| 2026-05-05 19:04 | 20.67704 | -13.01991 | 9888 ft | 153 kts | 195° |
| 2026-05-05 19:04 | 20.66668 | -13.02265 | 9891 ft | 153 kts | 195° |
| 2026-05-05 19:05 | 20.65631 | -13.02540 | 9894 ft | 153 kts | 195° |
| 2026-05-05 19:05 | 20.64931 | -13.02724 | 9897 ft | 153 kts | 195° |
| 2026-05-05 19:05 | 20.63909 | -13.02994 | 9896 ft | 154 kts | 194° |
| 2026-05-05 19:05 | 20.62853 | -13.03273 | 9901 ft | 154 kts | 194° |
| 2026-05-05 19:06 | 20.61825 | -13.03545 | 9901 ft | 155 kts | 194° |
| 2026-05-05 19:06 | 20.60782 | -13.03820 | 9904 ft | 154 kts | 194° |
| 2026-05-05 19:06 | 20.59737 | -13.04096 | 9910 ft | 154 kts | 195° |
| 2026-05-05 19:06 | 20.58694 | -13.04371 | 9913 ft | 154 kts | 195° |
| 2026-05-05 19:07 | 20.57653 | -13.04647 | 9913 ft | 154 kts | 194° |
| 2026-05-05 19:07 | 20.56613 | -13.04921 | 9913 ft | 154 kts | 194° |
| 2026-05-05 19:07 | 20.55570 | -13.05196 | 9913 ft | 154 kts | 195° |
| 2026-05-05 19:07 | 20.54526 | -13.05471 | 9913 ft | 155 kts | 194° |
| 2026-05-05 19:08 | 20.53483 | -13.05747 | 9916 ft | 155 kts | 194° |
| 2026-05-05 19:08 | 20.52435 | -13.06024 | 9916 ft | 155 kts | 194° |
| 2026-05-05 19:08 | 20.51382 | -13.06301 | 9916 ft | 155 kts | 194° |
| 2026-05-05 19:08 | 20.50337 | -13.06598 | 9915 ft | 155 kts | 201° |
| 2026-05-05 19:09 | 20.49485 | -13.07283 | 9914 ft | 155 kts | 228° |
| 2026-05-05 19:09 | 20.48790 | -13.08146 | 9916 ft | 155 kts | 228° |
| 2026-05-05 19:09 | 20.48080 | -13.09010 | 9917 ft | 155 kts | 228° |
| 2026-05-05 19:09 | 20.47369 | -13.09878 | 9918 ft | 155 kts | 228° |
| 2026-05-05 19:10 | 20.46660 | -13.10744 | 9919 ft | 155 kts | 228° |
| 2026-05-05 19:10 | 20.45949 | -13.11613 | 9919 ft | 155 kts | 228° |
| 2026-05-05 19:10 | 20.45239 | -13.12480 | 9919 ft | 155 kts | 228° |
| 2026-05-05 19:10 | 20.44530 | -13.13345 | 9823 ft | 155 kts | 228° |
| 2026-05-05 19:11 | 20.43821 | -13.14210 | 9823 ft | 155 kts | 227° |
| 2026-05-05 19:11 | 20.43110 | -13.15079 | 9824 ft | 155 kts | 227° |
| 2026-05-05 19:11 | 20.42398 | -13.15946 | 9823 ft | 156 kts | 227° |
| 2026-05-05 19:11 | 20.41686 | -13.16815 | 9822 ft | 156 kts | 227° |
| 2026-05-05 19:12 | 20.40971 | -13.17687 | 9823 ft | 155 kts | 227° |
| 2026-05-05 19:12 | 20.40261 | -13.18553 | 9823 ft | 155 kts | 227° |
| 2026-05-05 19:12 | 20.39550 | -13.19421 | 9821 ft | 156 kts | 227° |
| 2026-05-05 19:12 | 20.38846 | -13.20279 | 9821 ft | 155 kts | 227° |
| 2026-05-05 19:13 | 20.38134 | -13.21147 | 9812 ft | 155 kts | 227° |
| 2026-05-05 19:13 | 20.37423 | -13.22014 | 9813 ft | 155 kts | 227° |
| 2026-05-05 19:13 | 20.36713 | -13.22878 | 9813 ft | 155 kts | 227° |
| 2026-05-05 19:13 | 20.36004 | -13.23742 | 9811 ft | 155 kts | 227° |
| 2026-05-05 19:14 | 20.35295 | -13.24606 | 9811 ft | 154 kts | 227° |
| 2026-05-05 19:14 | 20.34589 | -13.25466 | 9812 ft | 154 kts | 227° |
| 2026-05-05 19:14 | 20.33891 | -13.26317 | 9813 ft | 154 kts | 227° |
| 2026-05-05 19:14 | 20.33183 | -13.27178 | 9812 ft | 155 kts | 227° |
| 2026-05-05 19:15 | 20.32474 | -13.28042 | 9812 ft | 155 kts | 227° |
| 2026-05-05 19:15 | 20.31764 | -13.28907 | 9813 ft | 155 kts | 227° |
| 2026-05-05 19:15 | 20.31054 | -13.29771 | 9813 ft | 155 kts | 227° |
| 2026-05-05 19:15 | 20.30342 | -13.30637 | 9812 ft | 156 kts | 227° |
| 2026-05-05 19:16 | 20.29627 | -13.31507 | 9815 ft | 156 kts | 227° |
| 2026-05-05 19:16 | 20.28912 | -13.32378 | 9814 ft | 156 kts | 225° |
| 2026-05-05 19:16 | 20.28195 | -13.33249 | 9815 ft | 156 kts | 225° |
| 2026-05-05 19:16 | 20.27479 | -13.34119 | 9814 ft | 156 kts | 226° |
| 2026-05-05 19:17 | 20.26765 | -13.34989 | 9814 ft | 156 kts | 226° |
| 2026-05-05 19:17 | 20.26048 | -13.35860 | 9809 ft | 156 kts | 225° |
| 2026-05-05 19:17 | 20.25340 | -13.36721 | 9809 ft | 156 kts | 225° |
| 2026-05-05 19:17 | 20.24625 | -13.37590 | 9808 ft | 156 kts | 226° |
| 2026-05-05 19:18 | 20.23909 | -13.38460 | 9809 ft | 156 kts | 226° |
| 2026-05-05 19:18 | 20.23189 | -13.39334 | 9809 ft | 157 kts | 226° |
| 2026-05-05 19:18 | 20.22469 | -13.40210 | 9811 ft | 157 kts | 225° |
| 2026-05-05 19:18 | 20.21749 | -13.41085 | 9809 ft | 157 kts | 226° |
| 2026-05-05 19:19 | 20.21027 | -13.41962 | 9808 ft | 157 kts | 226° |
| 2026-05-05 19:19 | 20.20314 | -13.42827 | 9807 ft | 157 kts | 226° |
| 2026-05-05 19:19 | 20.19590 | -13.43707 | 9807 ft | 158 kts | 226° |
| 2026-05-05 19:19 | 20.18869 | -13.44583 | 9808 ft | 157 kts | 225° |
| 2026-05-05 19:20 | 20.18151 | -13.45454 | 9807 ft | 157 kts | 226° |
| 2026-05-05 19:20 | 20.17431 | -13.46328 | 9807 ft | 157 kts | 226° |
| 2026-05-05 19:20 | 20.16711 | -13.47202 | 9808 ft | 156 kts | 225° |
| 2026-05-05 19:20 | 20.15992 | -13.48073 | 9809 ft | 157 kts | 225° |
| 2026-05-05 19:21 | 20.15275 | -13.48943 | 9812 ft | 157 kts | 226° |
| 2026-05-05 19:21 | 20.14555 | -13.49817 | 9817 ft | 157 kts | 226° |
| 2026-05-05 19:21 | 20.13835 | -13.50690 | 9817 ft | 156 kts | 225° |
| 2026-05-05 19:21 | 20.13121 | -13.51556 | 9817 ft | 156 kts | 226° |
| 2026-05-05 19:22 | 20.12407 | -13.52421 | 9817 ft | 155 kts | 226° |
| 2026-05-05 19:22 | 20.11694 | -13.53286 | 9817 ft | 155 kts | 226° |
| 2026-05-05 19:22 | 20.10989 | -13.54139 | 9817 ft | 155 kts | 226° |
| 2026-05-05 19:22 | 20.10277 | -13.55003 | 9817 ft | 155 kts | 225° |
| 2026-05-05 19:23 | 20.09564 | -13.55867 | 9815 ft | 155 kts | 226° |
| 2026-05-05 19:23 | 20.08849 | -13.56733 | 9815 ft | 156 kts | 226° |
| 2026-05-05 19:23 | 20.08135 | -13.57598 | 9816 ft | 156 kts | 226° |
| 2026-05-05 19:23 | 20.07418 | -13.58466 | 9815 ft | 156 kts | 226° |
| 2026-05-05 19:24 | 20.06703 | -13.59332 | 9816 ft | 156 kts | 225° |
| 2026-05-05 19:24 | 20.05988 | -13.60198 | 9815 ft | 156 kts | 226° |
| 2026-05-05 19:24 | 20.05280 | -13.61055 | 9815 ft | 156 kts | 226° |
| 2026-05-05 19:24 | 20.04566 | -13.61920 | 9816 ft | 156 kts | 226° |
| 2026-05-05 19:25 | 20.03848 | -13.62789 | 9818 ft | 156 kts | 225° |
| 2026-05-05 19:25 | 20.03132 | -13.63655 | 9817 ft | 156 kts | 226° |
| 2026-05-05 19:25 | 20.02416 | -13.64521 | 9817 ft | 156 kts | 226° |
| 2026-05-05 19:25 | 20.01701 | -13.65386 | 9817 ft | 155 kts | 226° |
| 2026-05-05 19:26 | 20.00985 | -13.66251 | 9817 ft | 155 kts | 226° |
| 2026-05-05 19:26 | 20.00270 | -13.67116 | 9817 ft | 155 kts | 226° |
| 2026-05-05 19:26 | 19.99556 | -13.67980 | 9817 ft | 156 kts | 226° |
| 2026-05-05 19:26 | 19.98841 | -13.68845 | 9817 ft | 156 kts | 226° |
| 2026-05-05 19:27 | 19.98125 | -13.69709 | 9815 ft | 156 kts | 226° |
| 2026-05-05 19:27 | 19.97419 | -13.70564 | 9814 ft | 155 kts | 225° |
| 2026-05-05 19:27 | 19.96709 | -13.71421 | 9814 ft | 156 kts | 226° |
| 2026-05-05 19:27 | 19.95989 | -13.72291 | 9814 ft | 155 kts | 226° |
| 2026-05-05 19:28 | 19.95275 | -13.73153 | 9817 ft | 155 kts | 226° |
| 2026-05-05 19:28 | 19.94560 | -13.74017 | 9818 ft | 156 kts | 226° |
| 2026-05-05 19:28 | 19.93846 | -13.74880 | 9818 ft | 156 kts | 225° |
| 2026-05-05 19:28 | 19.93128 | -13.75746 | 9814 ft | 156 kts | 230° |
| 2026-05-05 19:29 | 19.92408 | -13.76615 | 9813 ft | 157 kts | 229° |
| 2026-05-05 19:29 | 19.91693 | -13.77479 | 9814 ft | 157 kts | 229° |
| 2026-05-05 19:29 | 19.90970 | -13.78351 | 9814 ft | 157 kts | 229° |
| 2026-05-05 19:29 | 19.90246 | -13.79225 | 9819 ft | 158 kts | 229° |
| 2026-05-05 19:30 | 19.89520 | -13.80101 | 9817 ft | 158 kts | 229° |
| 2026-05-05 19:30 | 19.88799 | -13.80971 | 9818 ft | 157 kts | 228° |
| 2026-05-05 19:30 | 19.88078 | -13.81840 | 9820 ft | 156 kts | 229° |
| 2026-05-05 19:30 | 19.87358 | -13.82709 | 9817 ft | 157 kts | 229° |
| 2026-05-05 19:31 | 19.86636 | -13.83580 | 9816 ft | 157 kts | 228° |
| 2026-05-05 19:31 | 19.85913 | -13.84452 | 9818 ft | 157 kts | 229° |
| 2026-05-05 19:31 | 19.85190 | -13.85324 | 9817 ft | 157 kts | 228° |
| 2026-05-05 19:31 | 19.84478 | -13.86182 | 9824 ft | 157 kts | 226° |
| 2026-05-05 19:32 | 19.83757 | -13.87050 | 9828 ft | 156 kts | 225° |
| 2026-05-05 19:32 | 19.83038 | -13.87916 | 9826 ft | 156 kts | 225° |
| 2026-05-05 19:32 | 19.82314 | -13.88780 | 9826 ft | 156 kts | 225° |
| 2026-05-05 19:32 | 19.81603 | -13.89649 | 9826 ft | 156 kts | 226° |
| 2026-05-05 19:33 | 19.80886 | -13.90513 | 9825 ft | 156 kts | 225° |
| 2026-05-05 19:33 | 19.80168 | -13.91375 | 9827 ft | 155 kts | 225° |
| 2026-05-05 19:33 | 19.79452 | -13.92237 | 9826 ft | 155 kts | 225° |
| 2026-05-05 19:33 | 19.78736 | -13.93098 | 9827 ft | 155 kts | 225° |
| 2026-05-05 19:34 | 19.78033 | -13.93943 | 9829 ft | 155 kts | 225° |
| 2026-05-05 19:34 | 19.77319 | -13.94803 | 9828 ft | 156 kts | 226° |
| 2026-05-05 19:34 | 19.76604 | -13.95665 | 9829 ft | 155 kts | 225° |
| 2026-05-05 19:35 | 19.75173 | -13.97385 | 9827 ft | 155 kts | 225° |
| 2026-05-05 19:35 | 19.74460 | -13.98248 | 9827 ft | 156 kts | 226° |
| 2026-05-05 19:35 | 19.73743 | -13.99116 | 9828 ft | 156 kts | 225° |
| 2026-05-05 19:35 | 19.73029 | -13.99979 | 9828 ft | 155 kts | 225° |
| 2026-05-05 19:36 | 19.72316 | -14.00841 | 9829 ft | 155 kts | 225° |
| 2026-05-05 19:36 | 19.71610 | -14.01694 | 9827 ft | 155 kts | 226° |
| 2026-05-05 19:36 | 19.70898 | -14.02555 | 9828 ft | 155 kts | 225° |
| 2026-05-05 19:36 | 19.70186 | -14.03414 | 9827 ft | 154 kts | 225° |
| 2026-05-05 19:37 | 19.69477 | -14.04269 | 9829 ft | 154 kts | 225° |
| 2026-05-05 19:37 | 19.68770 | -14.05124 | 9828 ft | 154 kts | 225° |
| 2026-05-05 19:37 | 19.68059 | -14.05982 | 9827 ft | 155 kts | 226° |
| 2026-05-05 19:37 | 19.67348 | -14.06843 | 9829 ft | 155 kts | 225° |
| 2026-05-05 19:38 | 19.66636 | -14.07701 | 9838 ft | 155 kts | 225° |
| 2026-05-05 19:38 | 19.65933 | -14.08550 | 9837 ft | 155 kts | 225° |
| 2026-05-05 19:38 | 19.65218 | -14.09412 | 9838 ft | 156 kts | 226° |
| 2026-05-05 19:38 | 19.64501 | -14.10277 | 9837 ft | 156 kts | 226° |
| 2026-05-05 19:39 | 19.63786 | -14.11141 | 9836 ft | 156 kts | 226° |
| 2026-05-05 19:39 | 19.63071 | -14.12001 | 9835 ft | 155 kts | 225° |
| 2026-05-05 19:39 | 19.62356 | -14.12865 | 9835 ft | 156 kts | 225° |
| 2026-05-05 19:39 | 19.61642 | -14.13727 | 9835 ft | 155 kts | 225° |
| 2026-05-05 19:40 | 19.60930 | -14.14584 | 9832 ft | 154 kts | 225° |
| 2026-05-05 19:40 | 19.60221 | -14.15440 | 9832 ft | 154 kts | 225° |
| 2026-05-05 19:40 | 19.59511 | -14.16294 | 9830 ft | 154 kts | 225° |
| 2026-05-05 19:40 | 19.58811 | -14.17139 | 9830 ft | 155 kts | 226° |
| 2026-05-05 19:41 | 19.58100 | -14.17996 | 9830 ft | 155 kts | 225° |
| 2026-05-05 19:41 | 19.57389 | -14.18852 | 9831 ft | 155 kts | 225° |
| 2026-05-05 19:41 | 19.56674 | -14.19713 | 9829 ft | 155 kts | 226° |
| 2026-05-05 19:41 | 19.55959 | -14.20575 | 9829 ft | 156 kts | 226° |
| 2026-05-05 19:42 | 19.55242 | -14.21438 | 9833 ft | 156 kts | 226° |
| 2026-05-05 19:42 | 19.54534 | -14.22292 | 9838 ft | 155 kts | 225° |
| 2026-05-05 19:42 | 19.53823 | -14.23147 | 9839 ft | 154 kts | 225° |
| 2026-05-05 19:42 | 19.53117 | -14.23998 | 9838 ft | 154 kts | 225° |
| 2026-05-05 19:43 | 19.52409 | -14.24850 | 9836 ft | 153 kts | 225° |
| 2026-05-05 19:43 | 19.51703 | -14.25699 | 9836 ft | 153 kts | 225° |
| 2026-05-05 19:43 | 19.50999 | -14.26547 | 9835 ft | 153 kts | 225° |
| 2026-05-05 19:43 | 19.50298 | -14.27391 | 9835 ft | 152 kts | 225° |
| 2026-05-05 19:44 | 19.49595 | -14.28235 | 9834 ft | 153 kts | 226° |
| 2026-05-05 19:44 | 19.48892 | -14.29081 | 9834 ft | 153 kts | 225° |
| 2026-05-05 19:44 | 19.48190 | -14.29926 | 9834 ft | 153 kts | 225° |
| 2026-05-05 19:44 | 19.47485 | -14.30772 | 9834 ft | 153 kts | 225° |
| 2026-05-05 19:45 | 19.46779 | -14.31622 | 9835 ft | 154 kts | 225° |
| 2026-05-05 19:45 | 19.46071 | -14.32473 | 9834 ft | 154 kts | 225° |
| 2026-05-05 19:45 | 19.45362 | -14.33325 | 9835 ft | 154 kts | 225° |
| 2026-05-05 19:45 | 19.44654 | -14.34176 | 9835 ft | 154 kts | 225° |
| 2026-05-05 19:46 | 19.43956 | -14.35016 | 9835 ft | 154 kts | 225° |
| 2026-05-05 19:46 | 19.43246 | -14.35868 | 9835 ft | 154 kts | 225° |
| 2026-05-05 19:46 | 19.42539 | -14.36717 | 9838 ft | 153 kts | 225° |
| 2026-05-05 19:46 | 19.41832 | -14.37566 | 9838 ft | 154 kts | 225° |
| 2026-05-05 19:47 | 19.41125 | -14.38416 | 9839 ft | 154 kts | 225° |
| 2026-05-05 19:47 | 19.40417 | -14.39266 | 9838 ft | 154 kts | 225° |
| 2026-05-05 19:47 | 19.39709 | -14.40115 | 9838 ft | 154 kts | 225° |
| 2026-05-05 19:47 | 19.39001 | -14.40966 | 9838 ft | 154 kts | 225° |
| 2026-05-05 19:48 | 19.38301 | -14.41807 | 9839 ft | 154 kts | 225° |
| 2026-05-05 19:48 | 19.37592 | -14.42657 | 9838 ft | 154 kts | 225° |
| 2026-05-05 19:48 | 19.36883 | -14.43508 | 9838 ft | 154 kts | 225° |
| 2026-05-05 19:48 | 19.36173 | -14.44360 | 9837 ft | 154 kts | 225° |
| 2026-05-05 19:49 | 19.35467 | -14.45206 | 9838 ft | 153 kts | 225° |
| 2026-05-05 19:49 | 19.35001 | -14.45766 | 9840 ft | 153 kts | 225° |
| 2026-05-05 19:49 | 19.34060 | -14.46893 | 9840 ft | 153 kts | 225° |
| 2026-05-05 19:49 | 19.33357 | -14.47737 | 9841 ft | 153 kts | 225° |
| 2026-05-05 19:50 | 19.32654 | -14.48580 | 9844 ft | 152 kts | 225° |
| 2026-05-05 19:50 | 19.31954 | -14.49420 | 9844 ft | 152 kts | 225° |
| 2026-05-05 19:50 | 19.31260 | -14.50250 | 9843 ft | 152 kts | 225° |
| 2026-05-05 19:50 | 19.30557 | -14.51093 | 9850 ft | 153 kts | 225° |
| 2026-05-05 19:51 | 19.29855 | -14.51934 | 9848 ft | 152 kts | 225° |
| 2026-05-05 19:51 | 19.29152 | -14.52777 | 9848 ft | 152 kts | 225° |
| 2026-05-05 19:51 | 19.28449 | -14.53619 | 9848 ft | 153 kts | 225° |
| 2026-05-05 19:51 | 19.27744 | -14.54462 | 9847 ft | 153 kts | 225° |
| 2026-05-05 19:52 | 19.27040 | -14.55307 | 9846 ft | 153 kts | 225° |
| 2026-05-05 19:52 | 19.26332 | -14.56154 | 9846 ft | 153 kts | 225° |
| 2026-05-05 19:52 | 19.25626 | -14.57000 | 9847 ft | 153 kts | 225° |
| 2026-05-05 19:52 | 19.25157 | -14.57560 | 9847 ft | 154 kts | 226° |
| 2026-05-05 19:53 | 19.24450 | -14.58407 | 9848 ft | 153 kts | 225° |
| 2026-05-05 19:53 | 19.23745 | -14.59250 | 9849 ft | 153 kts | 225° |
| 2026-05-05 19:53 | 19.23043 | -14.60091 | 9848 ft | 152 kts | 225° |
| 2026-05-05 19:53 | 19.22344 | -14.60928 | 9848 ft | 151 kts | 225° |
| 2026-05-05 19:54 | 19.21646 | -14.61761 | 9847 ft | 151 kts | 226° |
| 2026-05-05 19:54 | 19.20947 | -14.62598 | 9846 ft | 152 kts | 225° |
| 2026-05-05 19:54 | 19.20248 | -14.63435 | 9844 ft | 151 kts | 224° |
| 2026-05-05 19:54 | 19.19550 | -14.64269 | 9845 ft | 152 kts | 225° |
| 2026-05-05 19:55 | 19.18856 | -14.65098 | 9850 ft | 153 kts | 226° |
| 2026-05-05 19:55 | 19.18146 | -14.65946 | 9849 ft | 154 kts | 226° |
| 2026-05-05 19:55 | 19.17435 | -14.66798 | 9850 ft | 154 kts | 226° |
| 2026-05-05 19:55 | 19.16728 | -14.67642 | 9852 ft | 153 kts | 224° |
| 2026-05-05 19:56 | 19.16021 | -14.68487 | 9854 ft | 152 kts | 224° |
| 2026-05-05 19:56 | 19.15317 | -14.69327 | 9851 ft | 153 kts | 225° |
| 2026-05-05 19:56 | 19.14611 | -14.70172 | 9853 ft | 152 kts | 224° |
| 2026-05-05 19:56 | 19.13917 | -14.71001 | 9854 ft | 152 kts | 224° |
| 2026-05-05 19:57 | 19.13217 | -14.71835 | 9852 ft | 152 kts | 225° |
| 2026-05-05 19:57 | 19.12517 | -14.72673 | 9854 ft | 151 kts | 224° |
| 2026-05-05 19:57 | 19.11815 | -14.73509 | 9852 ft | 152 kts | 224° |
| 2026-05-05 19:57 | 19.11107 | -14.74356 | 9854 ft | 153 kts | 224° |
| 2026-05-05 19:58 | 19.10404 | -14.75198 | 9854 ft | 152 kts | 226° |
| 2026-05-05 19:58 | 19.09705 | -14.76029 | 9854 ft | 153 kts | 225° |
| 2026-05-05 19:58 | 19.08997 | -14.76873 | 9854 ft | 154 kts | 226° |
| 2026-05-05 19:58 | 19.08285 | -14.77722 | 9852 ft | 155 kts | 226° |
| 2026-05-05 19:59 | 19.07573 | -14.78573 | 9854 ft | 154 kts | 224° |
| 2026-05-05 19:59 | 19.06865 | -14.79416 | 9862 ft | 152 kts | 224° |
| 2026-05-05 19:59 | 19.06164 | -14.80253 | 9859 ft | 153 kts | 226° |
| 2026-05-05 19:59 | 19.05459 | -14.81092 | 9861 ft | 153 kts | 225° |
| 2026-05-05 20:00 | 19.04758 | -14.81931 | 9863 ft | 152 kts | 224° |
| 2026-05-05 20:00 | 19.04061 | -14.82759 | 9865 ft | 150 kts | 224° |
| 2026-05-05 20:00 | 19.03368 | -14.83585 | 9864 ft | 150 kts | 224° |
| 2026-05-05 20:00 | 19.02674 | -14.84415 | 9863 ft | 150 kts | 224° |
| 2026-05-05 20:01 | 19.01975 | -14.85246 | 9863 ft | 151 kts | 226° |
| 2026-05-05 20:01 | 19.01276 | -14.86082 | 9866 ft | 151 kts | 225° |
| 2026-05-05 20:01 | 19.00583 | -14.86906 | 9864 ft | 152 kts | 226° |
| 2026-05-05 20:01 | 18.99876 | -14.87746 | 9864 ft | 154 kts | 225° |
| 2026-05-05 20:02 | 18.99169 | -14.88589 | 9866 ft | 153 kts | 225° |
| 2026-05-05 20:02 | 18.98459 | -14.89433 | 9867 ft | 154 kts | 226° |
| 2026-05-05 20:02 | 18.97746 | -14.90285 | 9869 ft | 154 kts | 224° |
| 2026-05-05 20:02 | 18.97038 | -14.91126 | 9868 ft | 153 kts | 226° |
| 2026-05-05 20:03 | 18.96327 | -14.91972 | 9867 ft | 154 kts | 226° |
| 2026-05-05 20:03 | 18.95617 | -14.92816 | 9869 ft | 153 kts | 225° |
| 2026-05-05 20:03 | 18.94910 | -14.93659 | 9877 ft | 153 kts | 225° |
| 2026-05-05 20:03 | 18.94208 | -14.94493 | 9876 ft | 151 kts | 226° |
| 2026-05-05 20:04 | 18.93511 | -14.95321 | 9874 ft | 150 kts | 226° |
| 2026-05-05 20:04 | 18.92823 | -14.96138 | 9870 ft | 151 kts | 227° |
| 2026-05-05 20:04 | 18.92129 | -14.96965 | 9870 ft | 150 kts | 227° |
| 2026-05-05 20:04 | 18.91436 | -14.97786 | 9872 ft | 150 kts | 226° |
| 2026-05-05 20:05 | 18.90744 | -14.98608 | 9869 ft | 150 kts | 227° |
| 2026-05-05 20:05 | 18.90046 | -14.99440 | 9867 ft | 152 kts | 227° |
| 2026-05-05 20:05 | 18.89344 | -15.00274 | 9867 ft | 152 kts | 227° |
| 2026-05-05 20:05 | 18.88640 | -15.01111 | 9871 ft | 151 kts | 227° |
| 2026-05-05 20:06 | 18.87940 | -15.01942 | 9872 ft | 150 kts | 226° |
| 2026-05-05 20:06 | 18.87255 | -15.02755 | 9870 ft | 151 kts | 227° |
| 2026-05-05 20:06 | 18.86554 | -15.03588 | 9869 ft | 151 kts | 226° |
| 2026-05-05 20:06 | 18.85860 | -15.04414 | 9872 ft | 150 kts | 226° |
| 2026-05-05 20:07 | 18.85169 | -15.05233 | 9874 ft | 149 kts | 226° |
| 2026-05-05 20:07 | 18.84479 | -15.06051 | 9873 ft | 150 kts | 227° |
| 2026-05-05 20:07 | 18.83791 | -15.06869 | 9874 ft | 149 kts | 225° |
| 2026-05-05 20:07 | 18.83095 | -15.07694 | 9873 ft | 152 kts | 226° |
| 2026-05-05 20:08 | 18.82391 | -15.08530 | 9875 ft | 152 kts | 225° |
| 2026-05-05 20:08 | 18.81697 | -15.09352 | 9876 ft | 152 kts | 226° |
| 2026-05-05 20:08 | 18.80991 | -15.10192 | 9877 ft | 152 kts | 226° |
| 2026-05-05 20:08 | 18.80285 | -15.11028 | 9875 ft | 153 kts | 226° |
| 2026-05-05 20:09 | 18.79575 | -15.11871 | 9870 ft | 154 kts | 226° |
| 2026-05-05 20:09 | 18.78866 | -15.12714 | 9873 ft | 153 kts | 225° |
| 2026-05-05 20:09 | 18.78157 | -15.13553 | 9874 ft | 152 kts | 226° |
| 2026-05-05 20:09 | 18.77450 | -15.14390 | 9873 ft | 153 kts | 226° |
| 2026-05-05 20:10 | 18.76747 | -15.15223 | 9874 ft | 154 kts | 225° |
| 2026-05-05 20:10 | 18.76037 | -15.16066 | 9879 ft | 153 kts | 225° |
| 2026-05-05 20:10 | 18.75331 | -15.16904 | 9882 ft | 152 kts | 225° |
| 2026-05-05 20:10 | 18.74625 | -15.17739 | 9880 ft | 152 kts | 225° |
| 2026-05-05 20:11 | 18.73917 | -15.18578 | 9878 ft | 153 kts | 226° |
| 2026-05-05 20:11 | 18.73206 | -15.19420 | 9878 ft | 154 kts | 226° |
| 2026-05-05 20:11 | 18.72506 | -15.20251 | 9879 ft | 153 kts | 225° |
| 2026-05-05 20:11 | 18.71799 | -15.21085 | 9878 ft | 153 kts | 226° |
| 2026-05-05 20:12 | 18.71091 | -15.21924 | 9889 ft | 153 kts | 226° |
| 2026-05-05 20:12 | 18.70385 | -15.22761 | 9890 ft | 152 kts | 225° |
| 2026-05-05 20:12 | 18.69677 | -15.23597 | 9887 ft | 153 kts | 226° |
| 2026-05-05 20:12 | 18.68968 | -15.24439 | 9889 ft | 153 kts | 225° |
| 2026-05-05 20:13 | 18.68262 | -15.25273 | 9886 ft | 153 kts | 226° |
| 2026-05-05 20:13 | 18.67556 | -15.26111 | 9887 ft | 153 kts | 225° |
| 2026-05-05 20:13 | 18.66845 | -15.26950 | 9888 ft | 153 kts | 225° |
| 2026-05-05 20:13 | 18.66139 | -15.27785 | 9889 ft | 152 kts | 225° |
| 2026-05-05 20:14 | 18.65436 | -15.28617 | 9890 ft | 151 kts | 225° |
| 2026-05-05 20:14 | 18.64735 | -15.29445 | 9890 ft | 152 kts | 226° |
| 2026-05-05 20:14 | 18.64039 | -15.30267 | 9888 ft | 152 kts | 226° |
| 2026-05-05 20:14 | 18.63335 | -15.31102 | 9890 ft | 152 kts | 225° |
| 2026-05-05 20:15 | 18.62630 | -15.31933 | 9890 ft | 152 kts | 225° |
| 2026-05-05 20:15 | 18.61924 | -15.32768 | 9888 ft | 153 kts | 226° |
| 2026-05-05 20:15 | 18.61214 | -15.33608 | 9888 ft | 154 kts | 226° |
| 2026-05-05 20:15 | 18.60498 | -15.34454 | 9889 ft | 154 kts | 225° |
| 2026-05-05 20:16 | 18.59785 | -15.35298 | 9892 ft | 154 kts | 225° |
| 2026-05-05 20:16 | 18.59073 | -15.36138 | 9905 ft | 153 kts | 225° |
| 2026-05-05 20:16 | 18.58363 | -15.36976 | 9904 ft | 154 kts | 226° |
| 2026-05-05 20:16 | 18.57650 | -15.37819 | 9904 ft | 153 kts | 225° |
| 2026-05-05 20:17 | 18.56942 | -15.38655 | 9901 ft | 153 kts | 226° |
| 2026-05-05 20:17 | 18.56241 | -15.39483 | 9901 ft | 153 kts | 225° |
| 2026-05-05 20:17 | 18.55533 | -15.40318 | 9903 ft | 152 kts | 225° |
| 2026-05-05 20:17 | 18.54825 | -15.41153 | 9900 ft | 153 kts | 226° |
| 2026-05-05 20:18 | 18.54113 | -15.41996 | 9898 ft | 153 kts | 225° |
| 2026-05-05 20:18 | 18.53404 | -15.42831 | 9897 ft | 152 kts | 226° |
| 2026-05-05 20:18 | 18.52697 | -15.43666 | 9896 ft | 152 kts | 225° |
| 2026-05-05 20:18 | 18.51997 | -15.44490 | 9895 ft | 153 kts | 226° |
| 2026-05-05 20:19 | 18.51284 | -15.45332 | 9898 ft | 154 kts | 226° |
| 2026-05-05 20:19 | 18.50570 | -15.46176 | 9899 ft | 154 kts | 225° |
| 2026-05-05 20:19 | 18.49860 | -15.47013 | 9902 ft | 152 kts | 225° |
| 2026-05-05 20:19 | 18.49150 | -15.47849 | 9899 ft | 153 kts | 226° |
| 2026-05-05 20:20 | 18.48443 | -15.48683 | 9899 ft | 153 kts | 226° |
| 2026-05-05 20:20 | 18.47734 | -15.49519 | 9902 ft | 152 kts | 225° |
| 2026-05-05 20:20 | 18.47029 | -15.50350 | 9909 ft | 152 kts | 225° |
| 2026-05-05 20:20 | 18.46328 | -15.51174 | 9907 ft | 154 kts | 226° |
| 2026-05-05 20:21 | 18.45611 | -15.52020 | 9907 ft | 155 kts | 225° |
| 2026-05-05 20:21 | 18.44890 | -15.52869 | 9906 ft | 156 kts | 226° |
| 2026-05-05 20:21 | 18.44167 | -15.53722 | 9909 ft | 156 kts | 225° |
| 2026-05-05 20:21 | 18.43444 | -15.54572 | 9908 ft | 156 kts | 226° |
| 2026-05-05 20:22 | 18.42720 | -15.55426 | 9905 ft | 156 kts | 226° |
| 2026-05-05 20:22 | 18.41994 | -15.56282 | 9906 ft | 156 kts | 225° |
| 2026-05-05 20:22 | 18.41275 | -15.57127 | 9906 ft | 157 kts | 226° |
| 2026-05-05 20:22 | 18.40551 | -15.57980 | 9907 ft | 156 kts | 225° |
| 2026-05-05 20:23 | 18.39819 | -15.58842 | 9912 ft | 156 kts | 226° |
| 2026-05-05 20:23 | 18.39105 | -15.59684 | 9914 ft | 156 kts | 225° |
| 2026-05-05 20:23 | 18.38377 | -15.60539 | 9914 ft | 156 kts | 225° |
| 2026-05-05 20:23 | 18.37653 | -15.61390 | 9915 ft | 156 kts | 225° |
| 2026-05-05 20:24 | 18.36931 | -15.62239 | 9912 ft | 155 kts | 225° |
| 2026-05-05 20:24 | 18.36209 | -15.63088 | 9910 ft | 156 kts | 226° |
| 2026-05-05 20:24 | 18.35486 | -15.63938 | 9908 ft | 156 kts | 225° |
| 2026-05-05 20:24 | 18.34764 | -15.64788 | 9919 ft | 155 kts | 226° |
| 2026-05-05 20:25 | 18.34044 | -15.65634 | 9916 ft | 155 kts | 226° |
| 2026-05-05 20:25 | 18.33327 | -15.66478 | 9915 ft | 155 kts | 226° |
| 2026-05-05 20:25 | 18.32616 | -15.67314 | 9916 ft | 155 kts | 226° |
| 2026-05-05 20:25 | 18.31895 | -15.68161 | 9918 ft | 155 kts | 226° |
| 2026-05-05 20:26 | 18.31176 | -15.69007 | 9916 ft | 155 kts | 226° |
| 2026-05-05 20:26 | 18.30458 | -15.69849 | 9916 ft | 155 kts | 225° |
| 2026-05-05 20:26 | 18.29737 | -15.70697 | 9916 ft | 155 kts | 226° |
| 2026-05-05 20:26 | 18.29022 | -15.71537 | 9916 ft | 154 kts | 225° |
| 2026-05-05 20:27 | 18.28313 | -15.72369 | 9914 ft | 155 kts | 226° |
| 2026-05-05 20:27 | 18.27596 | -15.73211 | 9916 ft | 154 kts | 225° |
| 2026-05-05 20:27 | 18.26880 | -15.74052 | 9915 ft | 154 kts | 226° |
| 2026-05-05 20:27 | 18.26163 | -15.74894 | 9915 ft | 155 kts | 225° |
| 2026-05-05 20:28 | 18.25446 | -15.75737 | 9919 ft | 154 kts | 226° |
| 2026-05-05 20:28 | 18.24726 | -15.76580 | 9918 ft | 155 kts | 226° |
| 2026-05-05 20:28 | 18.24007 | -15.77424 | 9918 ft | 155 kts | 226° |
| 2026-05-05 20:28 | 18.23286 | -15.78270 | 9917 ft | 155 kts | 226° |
| 2026-05-05 20:29 | 18.22575 | -15.79105 | 9921 ft | 155 kts | 225° |
| 2026-05-05 20:29 | 18.21859 | -15.79945 | 9922 ft | 154 kts | 225° |
| 2026-05-05 20:29 | 18.21142 | -15.80785 | 9921 ft | 155 kts | 226° |
| 2026-05-05 20:29 | 18.20425 | -15.81626 | 9921 ft | 155 kts | 226° |
| 2026-05-05 20:30 | 18.19708 | -15.82469 | 9922 ft | 154 kts | 225° |
| 2026-05-05 20:30 | 18.18993 | -15.83306 | 9921 ft | 153 kts | 225° |
| 2026-05-05 20:30 | 18.18279 | -15.84142 | 9921 ft | 154 kts | 226° |
| 2026-05-05 20:30 | 18.17565 | -15.84980 | 9920 ft | 154 kts | 226° |
| 2026-05-05 20:31 | 18.16849 | -15.85819 | 9922 ft | 154 kts | 226° |
| 2026-05-05 20:31 | 18.16141 | -15.86649 | 9924 ft | 154 kts | 225° |
| 2026-05-05 20:31 | 18.15423 | -15.87490 | 9923 ft | 155 kts | 226° |
| 2026-05-05 20:31 | 18.14704 | -15.88333 | 9925 ft | 155 kts | 226° |
| 2026-05-05 20:32 | 18.13984 | -15.89176 | 9921 ft | 155 kts | 226° |
| 2026-05-05 20:32 | 18.13261 | -15.90022 | 9922 ft | 155 kts | 226° |
| 2026-05-05 20:32 | 18.12536 | -15.90872 | 9923 ft | 155 kts | 225° |
| 2026-05-05 20:32 | 18.11815 | -15.91716 | 9922 ft | 155 kts | 226° |
| 2026-05-05 20:33 | 18.11103 | -15.92550 | 9927 ft | 155 kts | 225° |
| 2026-05-05 20:33 | 18.10382 | -15.93394 | 9928 ft | 155 kts | 224° |
| 2026-05-05 20:33 | 18.09661 | -15.94238 | 9929 ft | 155 kts | 225° |
| 2026-05-05 20:33 | 18.08813 | -15.94898 | 9926 ft | 152 kts | 199° |
| 2026-05-05 20:34 | 18.07789 | -15.95170 | 9925 ft | 151 kts | 192° |
| 2026-05-05 20:34 | 18.06761 | -15.95430 | 9927 ft | 152 kts | 193° |
| 2026-05-05 20:34 | 18.05734 | -15.95690 | 9925 ft | 152 kts | 193° |
| 2026-05-05 20:34 | 18.04719 | -15.95946 | 9928 ft | 152 kts | 192° |
| 2026-05-05 20:35 | 18.03680 | -15.96208 | 9925 ft | 152 kts | 192° |
| 2026-05-05 20:35 | 18.02663 | -15.96464 | 9924 ft | 152 kts | 193° |
| 2026-05-05 20:35 | 18.01630 | -15.96724 | 9923 ft | 153 kts | 193° |
| 2026-05-05 20:35 | 18.00592 | -15.96985 | 9924 ft | 153 kts | 193° |
| 2026-05-05 20:36 | 17.99559 | -15.97246 | 9926 ft | 153 kts | 192° |
| 2026-05-05 20:36 | 17.98522 | -15.97507 | 9924 ft | 153 kts | 192° |
| 2026-05-05 20:36 | 17.97490 | -15.97767 | 9927 ft | 152 kts | 192° |
| 2026-05-05 20:36 | 17.96460 | -15.98026 | 9926 ft | 152 kts | 192° |
| 2026-05-05 20:37 | 17.95429 | -15.98285 | 9925 ft | 153 kts | 192° |
| 2026-05-05 20:37 | 17.94743 | -15.98458 | 9923 ft | 153 kts | 192° |
| 2026-05-05 20:37 | 17.93360 | -15.98807 | 9927 ft | 152 kts | 192° |
| 2026-05-05 20:37 | 17.92327 | -15.99066 | 9927 ft | 152 kts | 192° |
| 2026-05-05 20:38 | 17.91310 | -15.99322 | 9931 ft | 152 kts | 192° |
| 2026-05-05 20:38 | 17.90280 | -15.99581 | 9929 ft | 152 kts | 192° |
| 2026-05-05 20:38 | 17.89239 | -15.99844 | 9933 ft | 152 kts | 193° |
| 2026-05-05 20:38 | 17.88218 | -16.00099 | 9930 ft | 153 kts | 193° |
| 2026-05-05 20:39 | 17.87179 | -16.00361 | 9928 ft | 154 kts | 193° |
| 2026-05-05 20:39 | 17.86143 | -16.00621 | 9932 ft | 153 kts | 193° |
| 2026-05-05 20:39 | 17.85110 | -16.00881 | 9931 ft | 153 kts | 193° |
| 2026-05-05 20:39 | 17.84073 | -16.01142 | 9931 ft | 153 kts | 193° |
| 2026-05-05 20:40 | 17.83033 | -16.01403 | 9928 ft | 154 kts | 193° |
| 2026-05-05 20:40 | 17.82343 | -16.01577 | 9928 ft | 154 kts | 193° |
| 2026-05-05 20:40 | 17.81294 | -16.01840 | 9927 ft | 155 kts | 193° |
| 2026-05-05 20:40 | 17.79889 | -16.02193 | 9930 ft | 155 kts | 193° |
| 2026-05-05 20:41 | 17.78845 | -16.02455 | 9933 ft | 154 kts | 193° |
| 2026-05-05 20:41 | 17.77818 | -16.02714 | 9934 ft | 154 kts | 193° |
| 2026-05-05 20:41 | 17.76776 | -16.02975 | 9931 ft | 154 kts | 193° |
| 2026-05-05 20:41 | 17.76069 | -16.03152 | 9936 ft | 154 kts | 193° |
| 2026-05-05 20:42 | 17.75034 | -16.03413 | 9930 ft | 154 kts | 192° |
| 2026-05-05 20:42 | 17.73989 | -16.03675 | 9929 ft | 154 kts | 192° |
| 2026-05-05 20:42 | 17.72949 | -16.03936 | 9930 ft | 154 kts | 192° |
| 2026-05-05 20:42 | 17.71566 | -16.04283 | 9930 ft | 154 kts | 192° |
| 2026-05-05 20:43 | 17.70863 | -16.04460 | 9933 ft | 154 kts | 192° |
| 2026-05-05 20:43 | 17.69480 | -16.04807 | 9932 ft | 155 kts | 192° |
| 2026-05-05 20:43 | 17.68785 | -16.04981 | 9932 ft | 155 kts | 192° |
| 2026-05-05 20:43 | 17.67738 | -16.05244 | 9932 ft | 154 kts | 192° |
| 2026-05-05 20:44 | 17.66696 | -16.05505 | 9935 ft | 154 kts | 192° |
| 2026-05-05 20:44 | 17.65654 | -16.05767 | 9933 ft | 154 kts | 192° |
| 2026-05-05 20:44 | 17.64604 | -16.06030 | 9935 ft | 155 kts | 192° |
| 2026-05-05 20:44 | 17.63555 | -16.06293 | 9935 ft | 155 kts | 192° |
| 2026-05-05 20:45 | 17.61458 | -16.06819 | 9930 ft | 155 kts | 192° |
| 2026-05-05 20:45 | 17.60408 | -16.07082 | 9929 ft | 154 kts | 192° |
| 2026-05-05 20:45 | 17.59363 | -16.07344 | 9930 ft | 154 kts | 192° |
| 2026-05-05 20:46 | 17.58331 | -16.07603 | 9932 ft | 155 kts | 192° |
| 2026-05-05 20:46 | 17.57283 | -16.07865 | 9933 ft | 155 kts | 192° |
| 2026-05-05 20:46 | 17.56239 | -16.08127 | 9932 ft | 154 kts | 192° |
| 2026-05-05 20:46 | 17.55194 | -16.08389 | 9933 ft | 154 kts | 192° |
| 2026-05-05 20:47 | 17.54154 | -16.08650 | 9933 ft | 153 kts | 192° |
| 2026-05-05 20:47 | 17.53115 | -16.08909 | 9934 ft | 154 kts | 192° |
| 2026-05-05 20:47 | 17.52073 | -16.09171 | 9931 ft | 154 kts | 192° |
| 2026-05-05 20:47 | 17.51027 | -16.09432 | 9932 ft | 154 kts | 192° |
| 2026-05-05 20:48 | 17.49979 | -16.09695 | 9931 ft | 155 kts | 192° |
| 2026-05-05 20:48 | 17.48930 | -16.09958 | 9934 ft | 155 kts | 192° |
| 2026-05-05 20:48 | 17.47885 | -16.10219 | 9933 ft | 154 kts | 192° |
| 2026-05-05 20:48 | 17.46835 | -16.10482 | 9933 ft | 155 kts | 192° |
| 2026-05-05 20:49 | 17.45782 | -16.10745 | 9933 ft | 155 kts | 192° |
| 2026-05-05 20:49 | 17.44731 | -16.11009 | 9932 ft | 155 kts | 192° |
| 2026-05-05 20:49 | 17.43677 | -16.11272 | 9934 ft | 155 kts | 192° |
| 2026-05-05 20:49 | 17.42628 | -16.11534 | 9932 ft | 155 kts | 192° |
| 2026-05-05 20:50 | 17.41598 | -16.11793 | 9930 ft | 154 kts | 192° |
| 2026-05-05 20:50 | 17.40552 | -16.12054 | 9929 ft | 154 kts | 192° |
| 2026-05-05 20:50 | 17.39506 | -16.12316 | 9928 ft | 154 kts | 192° |
| 2026-05-05 20:50 | 17.38461 | -16.12577 | 9927 ft | 154 kts | 192° |
| 2026-05-05 20:51 | 17.37418 | -16.12837 | 9929 ft | 154 kts | 192° |
| 2026-05-05 20:51 | 17.36376 | -16.13098 | 9930 ft | 154 kts | 192° |
| 2026-05-05 20:51 | 17.35328 | -16.13360 | 9933 ft | 154 kts | 192° |
| 2026-05-05 20:51 | 17.34287 | -16.13620 | 9934 ft | 154 kts | 192° |
| 2026-05-05 20:52 | 17.33243 | -16.13881 | 9934 ft | 154 kts | 192° |
| 2026-05-05 20:52 | 17.32212 | -16.14139 | 9935 ft | 155 kts | 192° |
| 2026-05-05 20:52 | 17.31164 | -16.14401 | 9936 ft | 155 kts | 192° |
| 2026-05-05 20:52 | 17.30117 | -16.14663 | 9935 ft | 155 kts | 192° |
| 2026-05-05 20:53 | 17.29069 | -16.14924 | 9937 ft | 155 kts | 192° |
| 2026-05-05 20:53 | 17.28021 | -16.15186 | 9935 ft | 155 kts | 192° |
| 2026-05-05 20:53 | 17.26970 | -16.15449 | 9935 ft | 155 kts | 192° |
| 2026-05-05 20:53 | 17.25918 | -16.15711 | 9935 ft | 155 kts | 192° |
| 2026-05-05 20:54 | 17.24864 | -16.15974 | 9936 ft | 155 kts | 192° |
| 2026-05-05 20:54 | 17.23828 | -16.16233 | 9935 ft | 155 kts | 192° |
| 2026-05-05 20:54 | 17.22766 | -16.16498 | 9937 ft | 155 kts | 192° |
| 2026-05-05 20:54 | 17.21733 | -16.16756 | 9936 ft | 155 kts | 192° |
| 2026-05-05 20:55 | 17.20685 | -16.17018 | 9933 ft | 155 kts | 192° |
| 2026-05-05 20:55 | 17.19637 | -16.17279 | 9933 ft | 155 kts | 192° |
| 2026-05-05 20:55 | 17.18591 | -16.17540 | 9934 ft | 154 kts | 192° |
| 2026-05-05 20:55 | 17.17548 | -16.17801 | 9935 ft | 154 kts | 192° |
| 2026-05-05 20:56 | 17.16504 | -16.18061 | 9936 ft | 154 kts | 192° |
| 2026-05-05 20:56 | 17.15460 | -16.18321 | 9935 ft | 154 kts | 192° |
| 2026-05-05 20:56 | 17.14418 | -16.18581 | 9936 ft | 154 kts | 192° |
| 2026-05-05 20:56 | 17.13373 | -16.18842 | 9934 ft | 154 kts | 192° |
| 2026-05-05 20:57 | 17.12328 | -16.19103 | 9932 ft | 154 kts | 192° |
| 2026-05-05 20:57 | 17.11284 | -16.19363 | 9932 ft | 154 kts | 192° |
| 2026-05-05 20:57 | 17.10239 | -16.19623 | 9930 ft | 154 kts | 192° |
| 2026-05-05 20:57 | 17.09209 | -16.19880 | 9931 ft | 154 kts | 192° |
| 2026-05-05 20:58 | 17.08162 | -16.20140 | 9935 ft | 155 kts | 192° |
| 2026-05-05 20:58 | 17.07114 | -16.20402 | 9933 ft | 155 kts | 191° |
| 2026-05-05 20:58 | 17.06059 | -16.20665 | 9935 ft | 156 kts | 191° |
| 2026-05-05 20:58 | 17.05002 | -16.20928 | 9938 ft | 156 kts | 191° |
| 2026-05-05 20:59 | 17.03946 | -16.21191 | 9939 ft | 156 kts | 191° |
| 2026-05-05 20:59 | 17.02891 | -16.21454 | 9938 ft | 156 kts | 191° |
| 2026-05-05 20:59 | 17.01833 | -16.21718 | 9938 ft | 156 kts | 191° |
| 2026-05-05 20:59 | 17.00789 | -16.21978 | 9940 ft | 156 kts | 191° |
| 2026-05-05 21:00 | 16.99735 | -16.22240 | 9938 ft | 156 kts | 191° |
| 2026-05-05 21:00 | 16.98681 | -16.22505 | 9940 ft | 156 kts | 191° |
| 2026-05-05 21:00 | 16.97624 | -16.22766 | 9938 ft | 156 kts | 191° |
| 2026-05-05 21:00 | 16.96571 | -16.23028 | 9939 ft | 156 kts | 191° |
| 2026-05-05 21:01 | 16.95515 | -16.23290 | 9938 ft | 156 kts | 191° |
| 2026-05-05 21:01 | 16.94457 | -16.23554 | 9938 ft | 156 kts | 191° |
| 2026-05-05 21:01 | 16.93404 | -16.23816 | 9938 ft | 156 kts | 191° |
| 2026-05-05 21:01 | 16.92349 | -16.24078 | 9939 ft | 155 kts | 191° |
| 2026-05-05 21:02 | 16.91297 | -16.24340 | 9937 ft | 156 kts | 192° |
| 2026-05-05 21:02 | 16.90242 | -16.24602 | 9938 ft | 156 kts | 191° |
| 2026-05-05 21:02 | 16.89184 | -16.24866 | 9938 ft | 156 kts | 191° |
| 2026-05-05 21:02 | 16.88140 | -16.25125 | 9939 ft | 156 kts | 191° |
| 2026-05-05 21:03 | 16.87084 | -16.25388 | 9939 ft | 156 kts | 191° |
| 2026-05-05 21:03 | 16.86027 | -16.25651 | 9940 ft | 156 kts | 191° |
| 2026-05-05 21:03 | 16.84969 | -16.25913 | 9938 ft | 156 kts | 191° |
| 2026-05-05 21:03 | 16.83911 | -16.26177 | 9940 ft | 156 kts | 191° |
| 2026-05-05 21:04 | 16.82852 | -16.26440 | 9939 ft | 156 kts | 191° |
| 2026-05-05 21:04 | 16.81797 | -16.26702 | 9940 ft | 156 kts | 191° |
| 2026-05-05 21:04 | 16.80737 | -16.26965 | 9940 ft | 156 kts | 191° |
| 2026-05-05 21:04 | 16.79681 | -16.27228 | 9939 ft | 156 kts | 191° |
| 2026-05-05 21:05 | 16.78628 | -16.27490 | 9936 ft | 155 kts | 191° |
| 2026-05-05 21:05 | 16.77575 | -16.27751 | 9936 ft | 156 kts | 191° |
| 2026-05-05 21:05 | 16.76519 | -16.28014 | 9935 ft | 156 kts | 191° |
| 2026-05-05 21:05 | 16.75478 | -16.28272 | 9937 ft | 156 kts | 191° |
| 2026-05-05 21:06 | 16.74421 | -16.28534 | 9939 ft | 156 kts | 191° |
| 2026-05-05 21:06 | 16.73365 | -16.28797 | 9939 ft | 156 kts | 191° |
| 2026-05-05 21:06 | 16.72310 | -16.29058 | 9938 ft | 156 kts | 191° |
| 2026-05-05 21:06 | 16.71250 | -16.29321 | 9940 ft | 156 kts | 191° |
| 2026-05-05 21:07 | 16.70186 | -16.29585 | 9939 ft | 157 kts | 191° |
| 2026-05-05 21:07 | 16.69126 | -16.29848 | 9941 ft | 156 kts | 191° |
| 2026-05-05 21:07 | 16.68069 | -16.30111 | 9940 ft | 156 kts | 190° |
| 2026-05-05 21:07 | 16.67010 | -16.30373 | 9941 ft | 156 kts | 191° |
| 2026-05-05 21:08 | 16.65955 | -16.30635 | 9939 ft | 156 kts | 190° |
| 2026-05-05 21:08 | 16.64902 | -16.30897 | 9940 ft | 156 kts | 190° |
| 2026-05-05 21:08 | 16.63850 | -16.31158 | 9938 ft | 155 kts | 190° |
| 2026-05-05 21:08 | 16.62803 | -16.31417 | 9939 ft | 155 kts | 191° |
| 2026-05-05 21:09 | 16.61754 | -16.31677 | 9936 ft | 155 kts | 190° |
| 2026-05-05 21:09 | 16.60704 | -16.31938 | 9937 ft | 155 kts | 190° |
| 2026-05-05 21:09 | 16.59658 | -16.32197 | 9935 ft | 155 kts | 191° |
| 2026-05-05 21:09 | 16.58607 | -16.32458 | 9935 ft | 155 kts | 191° |
| 2026-05-05 21:10 | 16.57552 | -16.32719 | 9936 ft | 155 kts | 190° |
| 2026-05-05 21:10 | 16.56514 | -16.32976 | 9936 ft | 155 kts | 190° |
| 2026-05-05 21:10 | 16.55465 | -16.33236 | 9935 ft | 155 kts | 191° |
| 2026-05-05 21:10 | 16.54415 | -16.33497 | 9934 ft | 155 kts | 190° |
| 2026-05-05 21:11 | 16.53363 | -16.33757 | 9941 ft | 155 kts | 191° |
| 2026-05-05 21:11 | 16.52310 | -16.34017 | 9941 ft | 156 kts | 191° |
| 2026-05-05 21:11 | 16.51256 | -16.34279 | 9941 ft | 156 kts | 191° |
| 2026-05-05 21:11 | 16.50201 | -16.34541 | 9942 ft | 156 kts | 191° |
| 2026-05-05 21:12 | 16.49145 | -16.34802 | 9940 ft | 156 kts | 191° |
| 2026-05-05 21:12 | 16.48088 | -16.35064 | 9947 ft | 157 kts | 191° |
| 2026-05-05 21:12 | 16.47025 | -16.35328 | 9946 ft | 157 kts | 190° |
| 2026-05-05 21:12 | 16.45962 | -16.35590 | 9948 ft | 157 kts | 190° |
| 2026-05-05 21:13 | 16.44901 | -16.35853 | 9944 ft | 157 kts | 190° |
| 2026-05-05 21:13 | 16.43843 | -16.36115 | 9946 ft | 156 kts | 190° |
| 2026-05-05 21:13 | 16.42784 | -16.36377 | 9944 ft | 156 kts | 190° |
| 2026-05-05 21:13 | 16.41726 | -16.36637 | 9944 ft | 157 kts | 190° |
| 2026-05-05 21:14 | 16.40681 | -16.36895 | 9943 ft | 157 kts | 191° |
| 2026-05-05 21:14 | 16.39615 | -16.37159 | 9943 ft | 157 kts | 191° |
| 2026-05-05 21:14 | 16.38551 | -16.37421 | 9948 ft | 157 kts | 190° |
| 2026-05-05 21:14 | 16.37487 | -16.37684 | 9947 ft | 157 kts | 190° |
| 2026-05-05 21:15 | 16.36422 | -16.37947 | 9945 ft | 157 kts | 190° |
| 2026-05-05 21:15 | 16.35359 | -16.38209 | 9943 ft | 157 kts | 190° |
| 2026-05-05 21:15 | 16.34293 | -16.38473 | 9946 ft | 157 kts | 190° |
| 2026-05-05 21:15 | 16.33230 | -16.38735 | 9943 ft | 157 kts | 190° |
| 2026-05-05 21:16 | 16.32166 | -16.38997 | 9945 ft | 157 kts | 190° |
| 2026-05-05 21:16 | 16.31102 | -16.39260 | 9945 ft | 157 kts | 190° |
| 2026-05-05 21:16 | 16.30036 | -16.39523 | 9945 ft | 157 kts | 190° |
| 2026-05-05 21:16 | 16.28985 | -16.39782 | 9946 ft | 157 kts | 190° |
| 2026-05-05 21:17 | 16.27918 | -16.40045 | 9945 ft | 157 kts | 190° |
| 2026-05-05 21:17 | 16.26853 | -16.40308 | 9947 ft | 157 kts | 190° |
| 2026-05-05 21:17 | 16.25787 | -16.40571 | 9946 ft | 157 kts | 190° |
| 2026-05-05 21:17 | 16.24718 | -16.40834 | 9944 ft | 158 kts | 190° |
| 2026-05-05 21:18 | 16.23651 | -16.41097 | 9945 ft | 158 kts | 190° |
| 2026-05-05 21:18 | 16.22582 | -16.41361 | 9947 ft | 157 kts | 190° |
| 2026-05-05 21:18 | 16.21515 | -16.41624 | 9945 ft | 157 kts | 190° |
| 2026-05-05 21:18 | 16.20449 | -16.41887 | 9946 ft | 157 kts | 190° |
| 2026-05-05 21:19 | 16.19399 | -16.42145 | 9946 ft | 157 kts | 190° |
| 2026-05-05 21:19 | 16.18334 | -16.42407 | 9945 ft | 157 kts | 190° |
| 2026-05-05 21:19 | 16.17273 | -16.42669 | 9946 ft | 157 kts | 190° |
| 2026-05-05 21:19 | 16.16209 | -16.42931 | 9944 ft | 157 kts | 190° |
| 2026-05-05 21:20 | 16.15146 | -16.43193 | 9946 ft | 157 kts | 190° |
| 2026-05-05 21:20 | 16.14084 | -16.43455 | 9943 ft | 157 kts | 190° |
| 2026-05-05 21:20 | 16.13018 | -16.43717 | 9945 ft | 157 kts | 190° |
| 2026-05-05 21:20 | 16.11956 | -16.43978 | 9946 ft | 157 kts | 190° |
| 2026-05-05 21:21 | 16.10893 | -16.44240 | 9941 ft | 157 kts | 190° |
| 2026-05-05 21:21 | 16.09829 | -16.44502 | 9943 ft | 157 kts | 190° |
| 2026-05-05 21:21 | 16.08766 | -16.44763 | 9944 ft | 157 kts | 190° |
| 2026-05-05 21:21 | 16.07715 | -16.45022 | 9942 ft | 157 kts | 190° |
| 2026-05-05 21:22 | 16.06638 | -16.45288 | 9946 ft | 157 kts | 190° |
| 2026-05-05 21:22 | 16.05571 | -16.45550 | 9946 ft | 157 kts | 190° |
| 2026-05-05 21:22 | 16.04533 | -16.45865 | 9947 ft | 158 kts | 200° |
| 2026-05-05 21:22 | 16.03527 | -16.46333 | 9948 ft | 158 kts | 200° |
| 2026-05-05 21:23 | 16.02520 | -16.46789 | 9948 ft | 157 kts | 200° |
| 2026-05-05 21:23 | 16.01514 | -16.47240 | 9948 ft | 157 kts | 200° |
| 2026-05-05 21:23 | 16.00508 | -16.47692 | 9947 ft | 157 kts | 200° |
| 2026-05-05 21:23 | 15.99506 | -16.48143 | 9946 ft | 157 kts | 200° |
| 2026-05-05 21:24 | 15.98502 | -16.48594 | 9947 ft | 157 kts | 200° |
| 2026-05-05 21:24 | 15.97509 | -16.49041 | 9950 ft | 157 kts | 200° |
| 2026-05-05 21:24 | 15.96506 | -16.49492 | 9949 ft | 157 kts | 200° |
| 2026-05-05 21:24 | 15.95502 | -16.49943 | 9949 ft | 157 kts | 200° |
| 2026-05-05 21:25 | 15.94498 | -16.50394 | 9947 ft | 157 kts | 200° |
| 2026-05-05 21:25 | 15.93495 | -16.50845 | 9950 ft | 157 kts | 200° |
| 2026-05-05 21:25 | 15.92493 | -16.51295 | 9949 ft | 157 kts | 200° |
| 2026-05-05 21:25 | 15.91489 | -16.51747 | 9949 ft | 157 kts | 200° |
| 2026-05-05 21:26 | 15.90488 | -16.52197 | 9950 ft | 157 kts | 200° |
| 2026-05-05 21:26 | 15.89485 | -16.52647 | 9947 ft | 157 kts | 200° |
| 2026-05-05 21:26 | 15.88487 | -16.53095 | 9950 ft | 156 kts | 200° |
| 2026-05-05 21:26 | 15.87498 | -16.53540 | 9948 ft | 156 kts | 200° |
| 2026-05-05 21:27 | 15.86500 | -16.53987 | 9950 ft | 157 kts | 200° |
| 2026-05-05 21:27 | 15.85497 | -16.54438 | 9948 ft | 157 kts | 200° |
| 2026-05-05 21:27 | 15.84497 | -16.54887 | 9949 ft | 157 kts | 199° |
| 2026-05-05 21:27 | 15.83495 | -16.55336 | 9951 ft | 157 kts | 200° |
| 2026-05-05 21:28 | 15.82495 | -16.55786 | 9952 ft | 157 kts | 199° |
| 2026-05-05 21:28 | 15.81496 | -16.56235 | 9951 ft | 157 kts | 200° |
| 2026-05-05 21:28 | 15.80495 | -16.56683 | 9953 ft | 156 kts | 200° |
| 2026-05-05 21:28 | 15.79497 | -16.57131 | 9953 ft | 156 kts | 199° |
| 2026-05-05 21:29 | 15.78497 | -16.57580 | 9949 ft | 156 kts | 200° |
| 2026-05-05 21:29 | 15.77497 | -16.58029 | 9949 ft | 156 kts | 200° |
| 2026-05-05 21:29 | 15.76499 | -16.58476 | 9950 ft | 156 kts | 199° |
| 2026-05-05 21:29 | 15.75837 | -16.58773 | 9947 ft | 156 kts | 200° |
| 2026-05-05 21:30 | 15.74841 | -16.59229 | 9951 ft | 157 kts | 200° |
| 2026-05-05 21:30 | 15.73522 | -16.59842 | 9952 ft | 157 kts | 200° |
| 2026-05-05 21:30 | 15.72847 | -16.60158 | 9952 ft | 157 kts | 200° |
| 2026-05-05 21:30 | 15.71864 | -16.60615 | 9950 ft | 157 kts | 200° |
| 2026-05-05 21:31 | 15.70885 | -16.61116 | 9955 ft | 158 kts | 208° |
| 2026-05-05 21:31 | 15.69973 | -16.61766 | 9955 ft | 159 kts | 210° |
| 2026-05-05 21:31 | 15.69054 | -16.62400 | 9958 ft | 158 kts | 208° |
| 2026-05-05 21:31 | 15.68131 | -16.63015 | 9958 ft | 158 kts | 208° |
| 2026-05-05 21:32 | 15.67207 | -16.63627 | 9955 ft | 158 kts | 208° |
| 2026-05-05 21:32 | 15.66281 | -16.64240 | 9956 ft | 157 kts | 208° |
| 2026-05-05 21:32 | 15.65356 | -16.64852 | 9955 ft | 158 kts | 208° |
| 2026-05-05 21:32 | 15.64442 | -16.65457 | 9956 ft | 158 kts | 208° |
| 2026-05-05 21:33 | 15.63516 | -16.66070 | 9956 ft | 158 kts | 208° |
| 2026-05-05 21:33 | 15.62589 | -16.66683 | 9956 ft | 158 kts | 208° |
| 2026-05-05 21:33 | 15.61664 | -16.67295 | 9956 ft | 158 kts | 208° |
| 2026-05-05 21:33 | 15.60738 | -16.67909 | 9956 ft | 158 kts | 208° |
| 2026-05-05 21:34 | 15.59812 | -16.68520 | 9953 ft | 157 kts | 208° |
| 2026-05-05 21:34 | 15.58900 | -16.69124 | 9956 ft | 157 kts | 208° |
| 2026-05-05 21:34 | 15.57979 | -16.69734 | 9956 ft | 157 kts | 208° |
| 2026-05-05 21:34 | 15.57050 | -16.70346 | 9954 ft | 158 kts | 208° |
| 2026-05-05 21:35 | 15.56120 | -16.70962 | 9956 ft | 159 kts | 208° |
| 2026-05-05 21:35 | 15.55184 | -16.71581 | 9959 ft | 160 kts | 208° |
| 2026-05-05 21:35 | 15.54246 | -16.72201 | 9960 ft | 160 kts | 208° |
| 2026-05-05 21:35 | 15.53307 | -16.72822 | 9959 ft | 160 kts | 208° |
| 2026-05-05 21:36 | 15.52366 | -16.73443 | 9963 ft | 160 kts | 209° |
| 2026-05-05 21:36 | 15.51426 | -16.74064 | 9962 ft | 160 kts | 208° |
| 2026-05-05 21:36 | 15.50485 | -16.74686 | 9964 ft | 160 kts | 208° |
| 2026-05-05 21:36 | 15.49543 | -16.75309 | 9963 ft | 160 kts | 208° |
| 2026-05-05 21:37 | 15.48602 | -16.75931 | 9961 ft | 160 kts | 209° |
| 2026-05-05 21:37 | 15.47659 | -16.76553 | 9961 ft | 161 kts | 208° |
| 2026-05-05 21:37 | 15.46717 | -16.77176 | 9961 ft | 161 kts | 208° |
| 2026-05-05 21:37 | 15.45772 | -16.77799 | 9961 ft | 161 kts | 208° |
| 2026-05-05 21:38 | 15.44829 | -16.78421 | 9963 ft | 161 kts | 208° |
| 2026-05-05 21:38 | 15.43896 | -16.79038 | 9964 ft | 161 kts | 208° |
| 2026-05-05 21:38 | 15.42954 | -16.79660 | 9965 ft | 161 kts | 208° |
| 2026-05-05 21:38 | 15.42008 | -16.80284 | 9965 ft | 161 kts | 208° |
| 2026-05-05 21:39 | 15.41062 | -16.80910 | 9965 ft | 161 kts | 208° |
| 2026-05-05 21:39 | 15.40116 | -16.81533 | 9965 ft | 161 kts | 208° |
| 2026-05-05 21:39 | 15.39174 | -16.82155 | 9964 ft | 161 kts | 208° |
| 2026-05-05 21:39 | 15.38231 | -16.82777 | 9965 ft | 161 kts | 208° |
| 2026-05-05 21:40 | 15.37287 | -16.83400 | 9967 ft | 160 kts | 208° |
| 2026-05-05 21:40 | 15.36345 | -16.84021 | 9965 ft | 160 kts | 208° |
| 2026-05-05 21:40 | 15.35402 | -16.84643 | 9967 ft | 160 kts | 208° |
| 2026-05-05 21:40 | 15.34473 | -16.85256 | 9966 ft | 160 kts | 208° |
| 2026-05-05 21:41 | 15.33529 | -16.85879 | 9970 ft | 160 kts | 208° |
| 2026-05-05 21:41 | 15.32589 | -16.86499 | 9970 ft | 160 kts | 208° |
| 2026-05-05 21:41 | 15.31647 | -16.87120 | 9970 ft | 160 kts | 208° |
| 2026-05-05 21:41 | 15.30646 | -16.87569 | 9969 ft | 155 kts | 188° |
| 2026-05-05 21:42 | 15.29589 | -16.87810 | 9965 ft | 156 kts | 189° |
| 2026-05-05 21:42 | 15.28536 | -16.88073 | 9967 ft | 156 kts | 189° |
| 2026-05-05 21:42 | 15.27480 | -16.88334 | 9964 ft | 156 kts | 189° |
| 2026-05-05 21:42 | 15.26424 | -16.88593 | 9969 ft | 156 kts | 189° |
| 2026-05-05 21:43 | 15.25368 | -16.88851 | 9970 ft | 156 kts | 189° |
| 2026-05-05 21:43 | 15.24310 | -16.89111 | 9971 ft | 156 kts | 189° |
| 2026-05-05 21:43 | 15.23268 | -16.89366 | 9970 ft | 156 kts | 189° |
| 2026-05-05 21:43 | 15.22211 | -16.89625 | 9970 ft | 156 kts | 189° |
| 2026-05-05 21:44 | 15.21154 | -16.89885 | 9969 ft | 156 kts | 189° |
| 2026-05-05 21:44 | 15.20096 | -16.90143 | 9970 ft | 156 kts | 189° |
| 2026-05-05 21:44 | 15.19038 | -16.90403 | 9972 ft | 156 kts | 189° |
| 2026-05-05 21:44 | 15.17980 | -16.90662 | 9970 ft | 156 kts | 189° |
| 2026-05-05 21:45 | 15.16919 | -16.90922 | 9974 ft | 156 kts | 189° |
| 2026-05-05 21:45 | 15.15856 | -16.91182 | 9975 ft | 157 kts | 189° |
| 2026-05-05 21:45 | 15.14798 | -16.91441 | 9975 ft | 156 kts | 189° |
| 2026-05-05 21:45 | 15.13737 | -16.91701 | 9974 ft | 157 kts | 189° |
| 2026-05-05 21:46 | 15.12676 | -16.91960 | 9977 ft | 157 kts | 189° |
| 2026-05-05 21:46 | 15.11617 | -16.92220 | 9977 ft | 156 kts | 189° |
| 2026-05-05 21:46 | 15.10558 | -16.92479 | 9978 ft | 156 kts | 189° |
| 2026-05-05 21:46 | 15.09514 | -16.92735 | 9977 ft | 156 kts | 189° |
| 2026-05-05 21:47 | 15.08444 | -16.92997 | 9980 ft | 156 kts | 189° |
| 2026-05-05 21:47 | 15.07401 | -16.93252 | 9979 ft | 156 kts | 189° |
| 2026-05-05 21:47 | 15.06345 | -16.93510 | 9979 ft | 156 kts | 189° |
| 2026-05-05 21:47 | 15.05290 | -16.93768 | 9978 ft | 156 kts | 189° |
| 2026-05-05 21:48 | 15.04232 | -16.94027 | 9973 ft | 156 kts | 189° |
| 2026-05-05 21:48 | 15.03177 | -16.94285 | 9973 ft | 156 kts | 189° |
| 2026-05-05 21:48 | 15.02122 | -16.94543 | 9972 ft | 156 kts | 189° |
| 2026-05-05 21:48 | 15.01064 | -16.94802 | 9973 ft | 156 kts | 189° |
| 2026-05-05 21:49 | 15.00011 | -16.95059 | 9976 ft | 156 kts | 189° |
| 2026-05-05 21:49 | 14.98954 | -16.95318 | 9978 ft | 156 kts | 189° |
| 2026-05-05 21:49 | 14.97900 | -16.95575 | 9978 ft | 155 kts | 189° |
| 2026-05-05 21:49 | 14.96862 | -16.95829 | 9979 ft | 155 kts | 189° |
| 2026-05-05 21:50 | 14.95810 | -16.96087 | 9979 ft | 156 kts | 189° |
| 2026-05-05 21:50 | 14.94755 | -16.96344 | 9979 ft | 156 kts | 189° |
| 2026-05-05 21:50 | 14.93702 | -16.96602 | 9978 ft | 156 kts | 189° |
| 2026-05-05 21:50 | 14.92646 | -16.96859 | 9979 ft | 156 kts | 189° |
| 2026-05-05 21:51 | 14.91587 | -16.97118 | 9980 ft | 156 kts | 188° |
| 2026-05-05 21:51 | 14.90521 | -16.97182 | 9979 ft | 152 kts | 174° |
| 2026-05-05 21:51 | 14.89460 | -16.97164 | 9980 ft | 153 kts | 176° |
| 2026-05-05 21:51 | 14.88392 | -16.97154 | 9980 ft | 153 kts | 176° |
| 2026-05-05 21:52 | 14.86258 | -16.97137 | 9980 ft | 153 kts | 176° |
| 2026-05-05 21:52 | 14.85191 | -16.97127 | 9980 ft | 153 kts | 176° |
| 2026-05-05 21:52 | 14.84125 | -16.97117 | 9980 ft | 153 kts | 176° |
| 2026-05-05 21:53 | 14.83070 | -16.97108 | 9983 ft | 153 kts | 176° |
| 2026-05-05 21:53 | 14.82001 | -16.97098 | 9983 ft | 153 kts | 176° |
| 2026-05-05 21:53 | 14.80933 | -16.97089 | 9983 ft | 153 kts | 176° |
| 2026-05-05 21:53 | 14.79866 | -16.97080 | 9983 ft | 153 kts | 176° |
| 2026-05-05 21:54 | 14.78798 | -16.97070 | 9981 ft | 153 kts | 176° |
| 2026-05-05 21:54 | 14.77733 | -16.97060 | 9980 ft | 153 kts | 176° |
| 2026-05-05 21:54 | 14.76664 | -16.97051 | 9980 ft | 153 kts | 176° |
| 2026-05-05 21:54 | 14.75599 | -16.97041 | 9980 ft | 153 kts | 176° |
| 2026-05-05 21:55 | 14.74545 | -16.97032 | 9980 ft | 153 kts | 176° |
| 2026-05-05 21:55 | 14.73480 | -16.97022 | 9980 ft | 153 kts | 176° |
| 2026-05-05 21:55 | 14.72416 | -16.97013 | 9980 ft | 153 kts | 176° |
| 2026-05-05 21:55 | 14.71349 | -16.97003 | 9980 ft | 153 kts | 176° |
| 2026-05-05 21:56 | 14.70288 | -16.96993 | 9979 ft | 153 kts | 176° |
| 2026-05-05 21:56 | 14.69222 | -16.96984 | 9979 ft | 153 kts | 176° |
| 2026-05-05 21:56 | 14.68160 | -16.96975 | 9980 ft | 152 kts | 176° |
| 2026-05-05 21:56 | 14.67097 | -16.96965 | 9980 ft | 153 kts | 176° |
| 2026-05-05 21:57 | 14.66036 | -16.96955 | 9980 ft | 153 kts | 176° |
| 2026-05-05 21:57 | 14.64971 | -16.96946 | 9984 ft | 153 kts | 175° |
| 2026-05-05 21:57 | 14.63906 | -16.96936 | 9984 ft | 153 kts | 175° |
| 2026-05-05 21:57 | 14.62851 | -16.96927 | 9985 ft | 153 kts | 175° |
| 2026-05-05 21:58 | 14.61786 | -16.96917 | 9981 ft | 153 kts | 176° |
| 2026-05-05 21:58 | 14.60721 | -16.96908 | 9981 ft | 153 kts | 175° |
| 2026-05-05 21:58 | 14.59653 | -16.96899 | 9981 ft | 153 kts | 175° |
| 2026-05-05 21:58 | 14.58588 | -16.96889 | 9979 ft | 153 kts | 175° |
| 2026-05-05 21:59 | 14.57525 | -16.96879 | 9980 ft | 153 kts | 175° |
| 2026-05-05 21:59 | 14.56461 | -16.96870 | 9980 ft | 153 kts | 175° |
| 2026-05-05 21:59 | 14.55398 | -16.96861 | 9980 ft | 153 kts | 175° |
| 2026-05-05 21:59 | 14.54333 | -16.96851 | 9980 ft | 153 kts | 175° |
| 2026-05-05 22:00 | 14.53269 | -16.96841 | 9978 ft | 153 kts | 175° |
| 2026-05-05 22:00 | 14.52196 | -16.96831 | 9889 ft | 158 kts | 175° |
| 2026-05-05 22:00 | 14.51052 | -16.96821 | 9625 ft | 170 kts | 176° |
| 2026-05-05 22:00 | 14.49863 | -16.96810 | 9354 ft | 176 kts | 176° |
| 2026-05-05 22:01 | 14.48624 | -16.96799 | 9094 ft | 179 kts | 176° |
| 2026-05-05 22:01 | 14.47368 | -16.96788 | 8838 ft | 181 kts | 177° |
| 2026-05-05 22:01 | 14.46104 | -16.96778 | 8595 ft | 180 kts | 177° |
| 2026-05-05 22:01 | 14.44847 | -16.96766 | 8359 ft | 180 kts | 177° |
| 2026-05-05 22:02 | 14.43588 | -16.96756 | 8112 ft | 181 kts | 177° |
| 2026-05-05 22:02 | 14.42324 | -16.96743 | 7865 ft | 182 kts | 177° |
| 2026-05-05 22:02 | 14.41072 | -16.96733 | 7625 ft | 182 kts | 176° |
| 2026-05-05 22:02 | 14.39808 | -16.96884 | 7370 ft | 187 kts | 198° |
| 2026-05-05 22:03 | 14.38697 | -16.97586 | 7116 ft | 190 kts | 223° |
| 2026-05-05 22:03 | 14.37964 | -16.98720 | 6854 ft | 192 kts | 249° |
| 2026-05-05 22:03 | 14.37756 | -17.00068 | 6607 ft | 191 kts | 272° |
| 2026-05-05 22:03 | 14.37758 | -17.01438 | 6354 ft | 190 kts | 272° |
| 2026-05-05 22:04 | 14.37750 | -17.02794 | 6098 ft | 189 kts | 271° |
| 2026-05-05 22:04 | 14.37758 | -17.04139 | 5853 ft | 185 kts | 278° |
| 2026-05-05 22:04 | 14.38146 | -17.05361 | 5613 ft | 177 kts | 302° |
| 2026-05-05 22:04 | 14.38924 | -17.06311 | 5382 ft | 172 kts | 322° |
| 2026-05-05 22:05 | 14.39953 | -17.06885 | 5175 ft | 166 kts | 342° |
| 2026-05-05 22:05 | 14.41075 | -17.07045 | 4964 ft | 166 kts | 359° |
| 2026-05-05 22:05 | 14.42232 | -17.07065 | 4641 ft | 169 kts | 355° |
| 2026-05-05 22:05 | 14.43400 | -17.07142 | 4390 ft | 166 kts | 355° |
| 2026-05-05 22:06 | 14.44535 | -17.07171 | 4182 ft | 162 kts | 356° |
| 2026-05-05 22:06 | 14.45654 | -17.07169 | 3979 ft | 160 kts | 356° |
| 2026-05-05 22:06 | 14.46769 | -17.07175 | 3776 ft | 160 kts | 356° |
| 2026-05-05 22:06 | 14.47881 | -17.07182 | 3577 ft | 160 kts | 356° |
| 2026-05-05 22:07 | 14.48992 | -17.07187 | 3376 ft | 159 kts | 356° |
| 2026-05-05 22:07 | 14.50090 | -17.07191 | 3178 ft | 153 kts | 356° |
| 2026-05-05 22:07 | 14.51100 | -17.07201 | 2988 ft | 138 kts | 356° |
| 2026-05-05 22:07 | 14.52030 | -17.07203 | 2822 ft | 130 kts | 356° |
| 2026-05-05 22:08 | 14.52910 | -17.07208 | 2660 ft | 127 kts | 356° |
| 2026-05-05 22:08 | 14.53758 | -17.07213 | 2509 ft | 116 kts | 354° |
| 2026-05-05 22:08 | 14.54525 | -17.07216 | 2366 ft | 105 kts | 354° |
| 2026-05-05 22:08 | 14.55234 | -17.07221 | 2238 ft | 99 kts | 354° |
| 2026-05-05 22:09 | 14.55914 | -17.07224 | 2112 ft | 96 kts | 355° |
| 2026-05-05 22:09 | 14.56535 | -17.07228 | 1998 ft | 82 kts | 354° |
| 2026-05-05 22:09 | 14.57077 | -17.07233 | 1898 ft | 77 kts | 354° |
| 2026-05-05 22:09 | 14.57628 | -17.07240 | 1807 ft | 82 kts | 354° |
| 2026-05-05 22:10 | 14.58220 | -17.07243 | 1700 ft | 87 kts | 354° |
| 2026-05-05 22:10 | 14.58831 | -17.07247 | 1585 ft | 89 kts | 355° |
| 2026-05-05 22:10 | 14.59456 | -17.07248 | 1461 ft | 90 kts | 354° |
| 2026-05-05 22:10 | 14.60080 | -17.07251 | 1348 ft | 91 kts | 355° |
| 2026-05-05 22:11 | 14.60707 | -17.07256 | 1238 ft | 89 kts | 353° |
| 2026-05-05 22:11 | 14.61332 | -17.07247 | 1114 ft | 91 kts | 358° |
| 2026-05-05 22:11 | 14.61955 | -17.07227 | 1018 ft | 89 kts | 355° |
| 2026-05-05 22:11 | 14.62577 | -17.07228 | 887 ft | 87 kts | 353° |
| 2026-05-05 22:12 | 14.63190 | -17.07244 | 800 ft | 91 kts | 352° |
| 2026-05-05 22:12 | 14.63827 | -17.07250 | 682 ft | 89 kts | 355° |
| 2026-05-05 22:12 | 14.64430 | -17.07264 | 576 ft | 84 kts | 355° |
| 2026-05-05 22:12 | 14.65026 | -17.07266 | 491 ft | 85 kts | 356° |
| 2026-05-05 22:13 | 14.65609 | -17.07276 | 412 ft | 86 kts | 356° |
| 2026-05-05 22:13 | 14.66213 | -17.07280 | 321 ft | 87 kts | 357° |
| 2026-05-05 22:13 | 14.66788 | -17.07279 | 267 ft | 71 kts | 357° |
| 2026-05-05 22:13 | 14.67179 | -17.07284 | 262 ft | 46 kts | 1° |
| 2026-05-05 22:14 | 14.67467 | -17.07284 | 257 ft | 39 kts | 358° |
| 2026-05-05 22:14 | 14.67696 | -17.07249 | 257 ft | 21 kts | 20° |
| 2026-05-05 22:14 | 14.67808 | -17.07188 | 256 ft | 17 kts | 34° |
| 2026-05-05 22:14 | 14.67826 | -17.07112 | 258 ft | 11 kts | 123° |
| 2026-05-05 22:15 | 14.67762 | -17.07097 | 260 ft | 10 kts | 180° |
| 2026-05-05 22:15 | 14.67691 | -17.07097 | 261 ft | 11 kts | 181° |
| 2026-05-05 22:15 | 14.67611 | -17.07096 | 261 ft | 12 kts | 180° |
| 2026-05-05 22:15 | 14.67543 | -17.07054 | 263 ft | 12 kts | 110° |
| 2026-05-05 22:16 | 14.67544 | -17.06996 | 265 ft | 8 kts | 42° |
| 2026-05-05 22:16 | 14.67601 | -17.06985 | 265 ft | 10 kts | 353° |
| 2026-05-05 22:16 | 14.67673 | -17.06983 | 265 ft | 11 kts | 3° |
| 2026-05-05 22:16 | 14.67703 | -17.06931 | 266 ft | 11 kts | 90° |
| 2026-05-05 22:17 | 14.67703 | -17.06848 | 266 ft | 12 kts | 90° |
| 2026-05-05 22:17 | 14.67738 | -17.06797 | 267 ft | 9 kts | 357° |
| 2026-05-05 22:17 | 14.67805 | -17.06800 | 267 ft | 10 kts | 358° |
| 2026-05-05 22:17 | 14.67881 | -17.06801 | 267 ft | 12 kts | 360° |
| 2026-05-05 22:18 | 14.67967 | -17.06803 | 266 ft | 13 kts | 357° |
| 2026-05-05 22:18 | 14.68058 | -17.06803 | 266 ft | 13 kts | 360° |
| 2026-05-05 22:18 | 14.68082 | -17.06791 | 266 ft | 4 kts | 88° |
| 2026-05-05 22:18 | 14.68081 | -17.06755 | 266 ft | 6 kts | 90° |
| 2026-05-05 22:19 | 14.68082 | -17.06747 | 266 ft | 1 kts | 81° |
| 2026-05-05 22:19 | 14.68108 | -17.06745 | 266 ft | 5 kts | 6° |
| 2026-05-05 22:19 | 14.68094 | -17.06756 | 266 ft | 4 kts | 178° |
| 2026-05-05 22:19 | 14.68091 | -17.06756 | 266 ft | 0 kts | 178° |